<?xml version="1.0" encoding="UTF-8" standalone="no" ?>
<gpx xmlns="http://www.topografix.com/GPX/1/1" xmlns:xsi="http://www.w3.org/2001/XMLSchema-instance" xsi:schemaLocation="http://www.topografix.com/GPX/1/1 http://www.topografix.com/GPX/1/1/gpx.xsd" version="1.1" creator="VisuGPX - https://www.visugpx.com">
  <metadata>
    <name>Night trail à la Vanade</name>
    <desc><![CDATA[Parcours de CAP/trail entre Villeneuve Loubet et Roquefort. Et de nuit, s\'il vous plait !]]></desc>
  </metadata>
  <trk>
    <name><![CDATA[Villeneuve Loubet - La Vanade]]></name>
    <desc><![CDATA[Sortie en nocturne avec Fabrice et Vince]]></desc>
    <trkseg>
      <trkpt lat="43.65776" lon="7.12034">
        <ele>16.60000038147</ele>
        <time>2010-12-15T17:31:54.000Z</time>
      </trkpt>
      <trkpt lat="43.6578" lon="7.12033">
        <ele>16.39999961853</ele>
        <time>2010-12-15T17:31:56.000Z</time>
      </trkpt>
      <trkpt lat="43.65796" lon="7.12024">
        <ele>15.800000190735</ele>
        <time>2010-12-15T17:32:03.000Z</time>
      </trkpt>
      <trkpt lat="43.65809" lon="7.12013">
        <ele>15.199999809265</ele>
        <time>2010-12-15T17:32:09.000Z</time>
      </trkpt>
      <trkpt lat="43.65816" lon="7.1201">
        <ele>14.800000190735</ele>
        <time>2010-12-15T17:32:14.000Z</time>
      </trkpt>
      <trkpt lat="43.65825" lon="7.12">
        <ele>14.39999961853</ele>
        <time>2010-12-15T17:32:19.000Z</time>
      </trkpt>
      <trkpt lat="43.65838" lon="7.11985">
        <ele>13.800000190735</ele>
        <time>2010-12-15T17:32:25.000Z</time>
      </trkpt>
      <trkpt lat="43.65848" lon="7.11974">
        <ele>13.60000038147</ele>
        <time>2010-12-15T17:32:30.000Z</time>
      </trkpt>
      <trkpt lat="43.65856" lon="7.11966">
        <ele>13.39999961853</ele>
        <time>2010-12-15T17:32:34.000Z</time>
      </trkpt>
      <trkpt lat="43.65865" lon="7.11954">
        <ele>13.39999961853</ele>
        <time>2010-12-15T17:32:39.000Z</time>
      </trkpt>
      <trkpt lat="43.65873" lon="7.1194">
        <ele>13.199999809265</ele>
        <time>2010-12-15T17:32:44.000Z</time>
      </trkpt>
      <trkpt lat="43.65881" lon="7.11929">
        <ele>13</ele>
        <time>2010-12-15T17:32:48.000Z</time>
      </trkpt>
      <trkpt lat="43.65892" lon="7.11918">
        <ele>13</ele>
        <time>2010-12-15T17:32:53.000Z</time>
      </trkpt>
      <trkpt lat="43.65897" lon="7.11914">
        <ele>13</ele>
        <time>2010-12-15T17:32:55.000Z</time>
      </trkpt>
      <trkpt lat="43.65907" lon="7.11898">
        <ele>13</ele>
        <time>2010-12-15T17:33:01.000Z</time>
      </trkpt>
      <trkpt lat="43.65918" lon="7.11883">
        <ele>12.800000190735</ele>
        <time>2010-12-15T17:33:07.000Z</time>
      </trkpt>
      <trkpt lat="43.6592" lon="7.11875">
        <ele>12.800000190735</ele>
        <time>2010-12-15T17:33:09.000Z</time>
      </trkpt>
      <trkpt lat="43.65929" lon="7.11859">
        <ele>12.60000038147</ele>
        <time>2010-12-15T17:33:15.000Z</time>
      </trkpt>
      <trkpt lat="43.65935" lon="7.11843">
        <ele>12.39999961853</ele>
        <time>2010-12-15T17:33:20.000Z</time>
      </trkpt>
      <trkpt lat="43.65946" lon="7.11819">
        <ele>13.60000038147</ele>
        <time>2010-12-15T17:33:27.000Z</time>
      </trkpt>
      <trkpt lat="43.65954" lon="7.11802">
        <ele>15</ele>
        <time>2010-12-15T17:33:32.000Z</time>
      </trkpt>
      <trkpt lat="43.65963" lon="7.11788">
        <ele>16</ele>
        <time>2010-12-15T17:33:37.000Z</time>
      </trkpt>
      <trkpt lat="43.65969" lon="7.11778">
        <ele>16.799999237061</ele>
        <time>2010-12-15T17:33:41.000Z</time>
      </trkpt>
      <trkpt lat="43.65976" lon="7.11762">
        <ele>18</ele>
        <time>2010-12-15T17:33:47.000Z</time>
      </trkpt>
      <trkpt lat="43.65983" lon="7.11746">
        <ele>19.200000762939</ele>
        <time>2010-12-15T17:33:53.000Z</time>
      </trkpt>
      <trkpt lat="43.65992" lon="7.11728">
        <ele>20.799999237061</ele>
        <time>2010-12-15T17:33:59.000Z</time>
      </trkpt>
      <trkpt lat="43.65998" lon="7.11714">
        <ele>21.60000038147</ele>
        <time>2010-12-15T17:34:03.000Z</time>
      </trkpt>
      <trkpt lat="43.66007" lon="7.11697">
        <ele>22</ele>
        <time>2010-12-15T17:34:09.000Z</time>
      </trkpt>
      <trkpt lat="43.66013" lon="7.11687">
        <ele>22.200000762939</ele>
        <time>2010-12-15T17:34:13.000Z</time>
      </trkpt>
      <trkpt lat="43.66016" lon="7.11673">
        <ele>23</ele>
        <time>2010-12-15T17:34:17.000Z</time>
      </trkpt>
      <trkpt lat="43.66022" lon="7.11662">
        <ele>23.39999961853</ele>
        <time>2010-12-15T17:34:21.000Z</time>
      </trkpt>
      <trkpt lat="43.66027" lon="7.11647">
        <ele>25</ele>
        <time>2010-12-15T17:34:26.000Z</time>
      </trkpt>
      <trkpt lat="43.66031" lon="7.11639">
        <ele>25.60000038147</ele>
        <time>2010-12-15T17:34:29.000Z</time>
      </trkpt>
      <trkpt lat="43.66036" lon="7.11624">
        <ele>26.39999961853</ele>
        <time>2010-12-15T17:34:34.000Z</time>
      </trkpt>
      <trkpt lat="43.6604" lon="7.11609">
        <ele>27.200000762939</ele>
        <time>2010-12-15T17:34:39.000Z</time>
      </trkpt>
      <trkpt lat="43.66046" lon="7.11597">
        <ele>26.799999237061</ele>
        <time>2010-12-15T17:34:43.000Z</time>
      </trkpt>
      <trkpt lat="43.66051" lon="7.11579">
        <ele>27.39999961853</ele>
        <time>2010-12-15T17:34:48.000Z</time>
      </trkpt>
      <trkpt lat="43.66057" lon="7.11564">
        <ele>27.200000762939</ele>
        <time>2010-12-15T17:34:53.000Z</time>
      </trkpt>
      <trkpt lat="43.66063" lon="7.11544">
        <ele>27.60000038147</ele>
        <time>2010-12-15T17:34:59.000Z</time>
      </trkpt>
      <trkpt lat="43.66065" lon="7.11535">
        <ele>28</ele>
        <time>2010-12-15T17:35:02.000Z</time>
      </trkpt>
      <trkpt lat="43.66074" lon="7.11511">
        <ele>28</ele>
        <time>2010-12-15T17:35:09.000Z</time>
      </trkpt>
      <trkpt lat="43.66082" lon="7.11499">
        <ele>26.60000038147</ele>
        <time>2010-12-15T17:35:13.000Z</time>
      </trkpt>
      <trkpt lat="43.66088" lon="7.11481">
        <ele>28.39999961853</ele>
        <time>2010-12-15T17:35:18.000Z</time>
      </trkpt>
      <trkpt lat="43.6609" lon="7.11478">
        <ele>28.60000038147</ele>
        <time>2010-12-15T17:35:19.000Z</time>
      </trkpt>
      <trkpt lat="43.66099" lon="7.11466">
        <ele>29.200000762939</ele>
        <time>2010-12-15T17:35:24.000Z</time>
      </trkpt>
      <trkpt lat="43.66103" lon="7.11462">
        <ele>29.200000762939</ele>
        <time>2010-12-15T17:35:26.000Z</time>
      </trkpt>
      <trkpt lat="43.66113" lon="7.11451">
        <ele>29.39999961853</ele>
        <time>2010-12-15T17:35:31.000Z</time>
      </trkpt>
      <trkpt lat="43.66124" lon="7.11439">
        <ele>29.60000038147</ele>
        <time>2010-12-15T17:35:36.000Z</time>
      </trkpt>
      <trkpt lat="43.66134" lon="7.11429">
        <ele>29.39999961853</ele>
        <time>2010-12-15T17:35:41.000Z</time>
      </trkpt>
      <trkpt lat="43.66148" lon="7.11417">
        <ele>28.60000038147</ele>
        <time>2010-12-15T17:35:47.000Z</time>
      </trkpt>
      <trkpt lat="43.6616" lon="7.11404">
        <ele>29.60000038147</ele>
        <time>2010-12-15T17:35:53.000Z</time>
      </trkpt>
      <trkpt lat="43.66174" lon="7.11395">
        <ele>30.200000762939</ele>
        <time>2010-12-15T17:35:59.000Z</time>
      </trkpt>
      <trkpt lat="43.66187" lon="7.11387">
        <ele>30.60000038147</ele>
        <time>2010-12-15T17:36:04.000Z</time>
      </trkpt>
      <trkpt lat="43.66198" lon="7.11377">
        <ele>31.60000038147</ele>
        <time>2010-12-15T17:36:09.000Z</time>
      </trkpt>
      <trkpt lat="43.66208" lon="7.1137">
        <ele>32</ele>
        <time>2010-12-15T17:36:13.000Z</time>
      </trkpt>
      <trkpt lat="43.66224" lon="7.11361">
        <ele>32</ele>
        <time>2010-12-15T17:36:19.000Z</time>
      </trkpt>
      <trkpt lat="43.66236" lon="7.11356">
        <ele>31.39999961853</ele>
        <time>2010-12-15T17:36:24.000Z</time>
      </trkpt>
      <trkpt lat="43.66246" lon="7.11351">
        <ele>31</ele>
        <time>2010-12-15T17:36:28.000Z</time>
      </trkpt>
      <trkpt lat="43.66259" lon="7.11346">
        <ele>30.60000038147</ele>
        <time>2010-12-15T17:36:33.000Z</time>
      </trkpt>
      <trkpt lat="43.66274" lon="7.11345">
        <ele>30</ele>
        <time>2010-12-15T17:36:38.000Z</time>
      </trkpt>
      <trkpt lat="43.66286" lon="7.11343">
        <ele>29.39999961853</ele>
        <time>2010-12-15T17:36:43.000Z</time>
      </trkpt>
      <trkpt lat="43.66302" lon="7.11339">
        <ele>29</ele>
        <time>2010-12-15T17:36:49.000Z</time>
      </trkpt>
      <trkpt lat="43.66319" lon="7.11333">
        <ele>28.799999237061</ele>
        <time>2010-12-15T17:36:56.000Z</time>
      </trkpt>
      <trkpt lat="43.66328" lon="7.11328">
        <ele>28.60000038147</ele>
        <time>2010-12-15T17:37:00.000Z</time>
      </trkpt>
      <trkpt lat="43.66339" lon="7.11323">
        <ele>28.60000038147</ele>
        <time>2010-12-15T17:37:04.000Z</time>
      </trkpt>
      <trkpt lat="43.66349" lon="7.11319">
        <ele>28.60000038147</ele>
        <time>2010-12-15T17:37:08.000Z</time>
      </trkpt>
      <trkpt lat="43.66367" lon="7.11317">
        <ele>28</ele>
        <time>2010-12-15T17:37:14.000Z</time>
      </trkpt>
      <trkpt lat="43.6638" lon="7.11307">
        <ele>28.39999961853</ele>
        <time>2010-12-15T17:37:20.000Z</time>
      </trkpt>
      <trkpt lat="43.66389" lon="7.11297">
        <ele>29</ele>
        <time>2010-12-15T17:37:25.000Z</time>
      </trkpt>
      <trkpt lat="43.66399" lon="7.11285">
        <ele>29.60000038147</ele>
        <time>2010-12-15T17:37:30.000Z</time>
      </trkpt>
      <trkpt lat="43.66409" lon="7.11274">
        <ele>30.200000762939</ele>
        <time>2010-12-15T17:37:35.000Z</time>
      </trkpt>
      <trkpt lat="43.66427" lon="7.11274">
        <ele>29.60000038147</ele>
        <time>2010-12-15T17:37:41.000Z</time>
      </trkpt>
      <trkpt lat="43.66438" lon="7.11272">
        <ele>29.60000038147</ele>
        <time>2010-12-15T17:37:45.000Z</time>
      </trkpt>
      <trkpt lat="43.66447" lon="7.1126">
        <ele>30.39999961853</ele>
        <time>2010-12-15T17:37:50.000Z</time>
      </trkpt>
      <trkpt lat="43.66457" lon="7.11241">
        <ele>31.39999961853</ele>
        <time>2010-12-15T17:37:56.000Z</time>
      </trkpt>
      <trkpt lat="43.66469" lon="7.1123">
        <ele>31.799999237061</ele>
        <time>2010-12-15T17:38:01.000Z</time>
      </trkpt>
      <trkpt lat="43.66482" lon="7.11218">
        <ele>32.200000762939</ele>
        <time>2010-12-15T17:38:07.000Z</time>
      </trkpt>
      <trkpt lat="43.66494" lon="7.11209">
        <ele>32.599998474121</ele>
        <time>2010-12-15T17:38:12.000Z</time>
      </trkpt>
      <trkpt lat="43.66502" lon="7.11201">
        <ele>32.599998474121</ele>
        <time>2010-12-15T17:38:16.000Z</time>
      </trkpt>
      <trkpt lat="43.66519" lon="7.1119">
        <ele>31.799999237061</ele>
        <time>2010-12-15T17:38:23.000Z</time>
      </trkpt>
      <trkpt lat="43.66527" lon="7.11188">
        <ele>31.200000762939</ele>
        <time>2010-12-15T17:38:27.000Z</time>
      </trkpt>
      <trkpt lat="43.66538" lon="7.11182">
        <ele>30.60000038147</ele>
        <time>2010-12-15T17:38:31.000Z</time>
      </trkpt>
      <trkpt lat="43.66554" lon="7.11175">
        <ele>29.39999961853</ele>
        <time>2010-12-15T17:38:37.000Z</time>
      </trkpt>
      <trkpt lat="43.6657" lon="7.11172">
        <ele>28</ele>
        <time>2010-12-15T17:38:43.000Z</time>
      </trkpt>
      <trkpt lat="43.66586" lon="7.11172">
        <ele>26.60000038147</ele>
        <time>2010-12-15T17:38:48.000Z</time>
      </trkpt>
      <trkpt lat="43.66601" lon="7.11174">
        <ele>25.39999961853</ele>
        <time>2010-12-15T17:38:53.000Z</time>
      </trkpt>
      <trkpt lat="43.66613" lon="7.11168">
        <ele>24.799999237061</ele>
        <time>2010-12-15T17:38:58.000Z</time>
      </trkpt>
      <trkpt lat="43.66629" lon="7.11158">
        <ele>24.39999961853</ele>
        <time>2010-12-15T17:39:04.000Z</time>
      </trkpt>
      <trkpt lat="43.66642" lon="7.11148">
        <ele>24.39999961853</ele>
        <time>2010-12-15T17:39:10.000Z</time>
      </trkpt>
      <trkpt lat="43.66657" lon="7.11141">
        <ele>23.799999237061</ele>
        <time>2010-12-15T17:39:16.000Z</time>
      </trkpt>
      <trkpt lat="43.66669" lon="7.11133">
        <ele>23.60000038147</ele>
        <time>2010-12-15T17:39:21.000Z</time>
      </trkpt>
      <trkpt lat="43.66684" lon="7.11125">
        <ele>23.60000038147</ele>
        <time>2010-12-15T17:39:27.000Z</time>
      </trkpt>
      <trkpt lat="43.66694" lon="7.11117">
        <ele>23.60000038147</ele>
        <time>2010-12-15T17:39:32.000Z</time>
      </trkpt>
      <trkpt lat="43.66705" lon="7.11103">
        <ele>23.799999237061</ele>
        <time>2010-12-15T17:39:38.000Z</time>
      </trkpt>
      <trkpt lat="43.66715" lon="7.11095">
        <ele>23.39999961853</ele>
        <time>2010-12-15T17:39:43.000Z</time>
      </trkpt>
      <trkpt lat="43.66725" lon="7.11087">
        <ele>23</ele>
        <time>2010-12-15T17:39:47.000Z</time>
      </trkpt>
      <trkpt lat="43.66734" lon="7.11073">
        <ele>23.799999237061</ele>
        <time>2010-12-15T17:39:52.000Z</time>
      </trkpt>
      <trkpt lat="43.66742" lon="7.11063">
        <ele>24.200000762939</ele>
        <time>2010-12-15T17:39:56.000Z</time>
      </trkpt>
      <trkpt lat="43.66751" lon="7.11051">
        <ele>24.60000038147</ele>
        <time>2010-12-15T17:40:01.000Z</time>
      </trkpt>
      <trkpt lat="43.66759" lon="7.11038">
        <ele>25.799999237061</ele>
        <time>2010-12-15T17:40:06.000Z</time>
      </trkpt>
      <trkpt lat="43.66767" lon="7.11028">
        <ele>26.39999961853</ele>
        <time>2010-12-15T17:40:10.000Z</time>
      </trkpt>
      <trkpt lat="43.66773" lon="7.11017">
        <ele>27</ele>
        <time>2010-12-15T17:40:14.000Z</time>
      </trkpt>
      <trkpt lat="43.66781" lon="7.11003">
        <ele>27.39999961853</ele>
        <time>2010-12-15T17:40:19.000Z</time>
      </trkpt>
      <trkpt lat="43.66791" lon="7.10986">
        <ele>27.799999237061</ele>
        <time>2010-12-15T17:40:25.000Z</time>
      </trkpt>
      <trkpt lat="43.66802" lon="7.10969">
        <ele>27.200000762939</ele>
        <time>2010-12-15T17:40:31.000Z</time>
      </trkpt>
      <trkpt lat="43.66808" lon="7.10956">
        <ele>26.799999237061</ele>
        <time>2010-12-15T17:40:36.000Z</time>
      </trkpt>
      <trkpt lat="43.66809" lon="7.10952">
        <ele>26.799999237061</ele>
        <time>2010-12-15T17:40:37.000Z</time>
      </trkpt>
      <trkpt lat="43.66811" lon="7.10931">
        <ele>27.39999961853</ele>
        <time>2010-12-15T17:40:43.000Z</time>
      </trkpt>
      <trkpt lat="43.66814" lon="7.1091">
        <ele>27.200000762939</ele>
        <time>2010-12-15T17:40:49.000Z</time>
      </trkpt>
      <trkpt lat="43.6682" lon="7.10893">
        <ele>25.60000038147</ele>
        <time>2010-12-15T17:40:54.000Z</time>
      </trkpt>
      <trkpt lat="43.66828" lon="7.10873">
        <ele>23</ele>
        <time>2010-12-15T17:41:00.000Z</time>
      </trkpt>
      <trkpt lat="43.66837" lon="7.1085">
        <ele>20.799999237061</ele>
        <time>2010-12-15T17:41:07.000Z</time>
      </trkpt>
      <trkpt lat="43.66842" lon="7.10825">
        <ele>20.39999961853</ele>
        <time>2010-12-15T17:41:14.000Z</time>
      </trkpt>
      <trkpt lat="43.66843" lon="7.10808">
        <ele>20.39999961853</ele>
        <time>2010-12-15T17:41:19.000Z</time>
      </trkpt>
      <trkpt lat="43.66847" lon="7.1079">
        <ele>20.200000762939</ele>
        <time>2010-12-15T17:41:24.000Z</time>
      </trkpt>
      <trkpt lat="43.66848" lon="7.10786">
        <ele>20</ele>
        <time>2010-12-15T17:41:25.000Z</time>
      </trkpt>
      <trkpt lat="43.66853" lon="7.10765">
        <ele>19.799999237061</ele>
        <time>2010-12-15T17:41:31.000Z</time>
      </trkpt>
      <trkpt lat="43.66859" lon="7.10742">
        <ele>19.39999961853</ele>
        <time>2010-12-15T17:41:37.000Z</time>
      </trkpt>
      <trkpt lat="43.66863" lon="7.10724">
        <ele>19.39999961853</ele>
        <time>2010-12-15T17:41:42.000Z</time>
      </trkpt>
      <trkpt lat="43.6687" lon="7.10704">
        <ele>19.39999961853</ele>
        <time>2010-12-15T17:41:48.000Z</time>
      </trkpt>
      <trkpt lat="43.66877" lon="7.1068">
        <ele>19.60000038147</ele>
        <time>2010-12-15T17:41:55.000Z</time>
      </trkpt>
      <trkpt lat="43.66882" lon="7.10665">
        <ele>19.799999237061</ele>
        <time>2010-12-15T17:41:59.000Z</time>
      </trkpt>
      <trkpt lat="43.66888" lon="7.10638">
        <ele>21</ele>
        <time>2010-12-15T17:42:06.000Z</time>
      </trkpt>
      <trkpt lat="43.66894" lon="7.1061">
        <ele>22</ele>
        <time>2010-12-15T17:42:14.000Z</time>
      </trkpt>
      <trkpt lat="43.66898" lon="7.10588">
        <ele>22.799999237061</ele>
        <time>2010-12-15T17:42:20.000Z</time>
      </trkpt>
      <trkpt lat="43.66905" lon="7.10572">
        <ele>22.60000038147</ele>
        <time>2010-12-15T17:42:25.000Z</time>
      </trkpt>
      <trkpt lat="43.66911" lon="7.10556">
        <ele>22.200000762939</ele>
        <time>2010-12-15T17:42:30.000Z</time>
      </trkpt>
      <trkpt lat="43.66917" lon="7.10538">
        <ele>21.799999237061</ele>
        <time>2010-12-15T17:42:35.000Z</time>
      </trkpt>
      <trkpt lat="43.66924" lon="7.10517">
        <ele>21.799999237061</ele>
        <time>2010-12-15T17:42:41.000Z</time>
      </trkpt>
      <trkpt lat="43.66931" lon="7.10502">
        <ele>21.799999237061</ele>
        <time>2010-12-15T17:42:46.000Z</time>
      </trkpt>
      <trkpt lat="43.66938" lon="7.10486">
        <ele>22.799999237061</ele>
        <time>2010-12-15T17:42:52.000Z</time>
      </trkpt>
      <trkpt lat="43.66942" lon="7.1047">
        <ele>23.799999237061</ele>
        <time>2010-12-15T17:42:57.000Z</time>
      </trkpt>
      <trkpt lat="43.6694" lon="7.10449">
        <ele>25</ele>
        <time>2010-12-15T17:43:03.000Z</time>
      </trkpt>
      <trkpt lat="43.66936" lon="7.10436">
        <ele>25.799999237061</ele>
        <time>2010-12-15T17:43:07.000Z</time>
      </trkpt>
      <trkpt lat="43.66924" lon="7.10433">
        <ele>26</ele>
        <time>2010-12-15T17:43:13.000Z</time>
      </trkpt>
      <trkpt lat="43.66907" lon="7.10429">
        <ele>26.39999961853</ele>
        <time>2010-12-15T17:43:18.000Z</time>
      </trkpt>
      <trkpt lat="43.66895" lon="7.10417">
        <ele>27.39999961853</ele>
        <time>2010-12-15T17:43:23.000Z</time>
      </trkpt>
      <trkpt lat="43.66886" lon="7.10408">
        <ele>28.39999961853</ele>
        <time>2010-12-15T17:43:28.000Z</time>
      </trkpt>
      <trkpt lat="43.66876" lon="7.10406">
        <ele>28.799999237061</ele>
        <time>2010-12-15T17:43:32.000Z</time>
      </trkpt>
      <trkpt lat="43.66863" lon="7.1041">
        <ele>28.60000038147</ele>
        <time>2010-12-15T17:43:37.000Z</time>
      </trkpt>
      <trkpt lat="43.66853" lon="7.10415">
        <ele>28.60000038147</ele>
        <time>2010-12-15T17:43:41.000Z</time>
      </trkpt>
      <trkpt lat="43.66841" lon="7.10418">
        <ele>28.60000038147</ele>
        <time>2010-12-15T17:43:46.000Z</time>
      </trkpt>
      <trkpt lat="43.66829" lon="7.10422">
        <ele>30.200000762939</ele>
        <time>2010-12-15T17:43:50.000Z</time>
      </trkpt>
      <trkpt lat="43.66818" lon="7.10425">
        <ele>33.400001525879</ele>
        <time>2010-12-15T17:43:54.000Z</time>
      </trkpt>
      <trkpt lat="43.66816" lon="7.10425">
        <ele>33.799999237061</ele>
        <time>2010-12-15T17:43:55.000Z</time>
      </trkpt>
      <trkpt lat="43.66814" lon="7.10421">
        <ele>34.400001525879</ele>
        <time>2010-12-15T17:43:57.000Z</time>
      </trkpt>
      <trkpt lat="43.66822" lon="7.10406">
        <ele>32.599998474121</ele>
        <time>2010-12-15T17:44:03.000Z</time>
      </trkpt>
      <trkpt lat="43.66821" lon="7.104">
        <ele>32.799999237061</ele>
        <time>2010-12-15T17:44:05.000Z</time>
      </trkpt>
      <trkpt lat="43.66818" lon="7.10385">
        <ele>34</ele>
        <time>2010-12-15T17:44:11.000Z</time>
      </trkpt>
      <trkpt lat="43.66812" lon="7.10372">
        <ele>35.599998474121</ele>
        <time>2010-12-15T17:44:16.000Z</time>
      </trkpt>
      <trkpt lat="43.66808" lon="7.1036">
        <ele>36.400001525879</ele>
        <time>2010-12-15T17:44:21.000Z</time>
      </trkpt>
      <trkpt lat="43.66808" lon="7.10356">
        <ele>36.400001525879</ele>
        <time>2010-12-15T17:44:23.000Z</time>
      </trkpt>
      <trkpt lat="43.66807" lon="7.10348">
        <ele>36.599998474121</ele>
        <time>2010-12-15T17:44:27.000Z</time>
      </trkpt>
      <trkpt lat="43.66803" lon="7.10334">
        <ele>37.400001525879</ele>
        <time>2010-12-15T17:44:33.000Z</time>
      </trkpt>
      <trkpt lat="43.66799" lon="7.10332">
        <ele>38</ele>
        <time>2010-12-15T17:44:35.000Z</time>
      </trkpt>
      <trkpt lat="43.66794" lon="7.10325">
        <ele>39</ele>
        <time>2010-12-15T17:44:39.000Z</time>
      </trkpt>
      <trkpt lat="43.66787" lon="7.10315">
        <ele>40.400001525879</ele>
        <time>2010-12-15T17:44:44.000Z</time>
      </trkpt>
      <trkpt lat="43.66778" lon="7.10307">
        <ele>41.599998474121</ele>
        <time>2010-12-15T17:44:50.000Z</time>
      </trkpt>
      <trkpt lat="43.66769" lon="7.10295">
        <ele>42.599998474121</ele>
        <time>2010-12-15T17:44:56.000Z</time>
      </trkpt>
      <trkpt lat="43.66766" lon="7.10289">
        <ele>42.799999237061</ele>
        <time>2010-12-15T17:44:59.000Z</time>
      </trkpt>
      <trkpt lat="43.66755" lon="7.10278">
        <ele>43.400001525879</ele>
        <time>2010-12-15T17:45:05.000Z</time>
      </trkpt>
      <trkpt lat="43.66748" lon="7.10271">
        <ele>43.799999237061</ele>
        <time>2010-12-15T17:45:09.000Z</time>
      </trkpt>
      <trkpt lat="43.66743" lon="7.10263">
        <ele>44.400001525879</ele>
        <time>2010-12-15T17:45:13.000Z</time>
      </trkpt>
      <trkpt lat="43.6674" lon="7.10246">
        <ele>44.799999237061</ele>
        <time>2010-12-15T17:45:19.000Z</time>
      </trkpt>
      <trkpt lat="43.66738" lon="7.10234">
        <ele>46.200000762939</ele>
        <time>2010-12-15T17:45:23.000Z</time>
      </trkpt>
      <trkpt lat="43.66729" lon="7.10229">
        <ele>48</ele>
        <time>2010-12-15T17:45:29.000Z</time>
      </trkpt>
      <trkpt lat="43.66728" lon="7.10226">
        <ele>48.400001525879</ele>
        <time>2010-12-15T17:45:36.000Z</time>
      </trkpt>
      <trkpt lat="43.66727" lon="7.10222">
        <ele>48.799999237061</ele>
        <time>2010-12-15T17:45:41.000Z</time>
      </trkpt>
      <trkpt lat="43.66721" lon="7.10209">
        <ele>50.599998474121</ele>
        <time>2010-12-15T17:45:47.000Z</time>
      </trkpt>
      <trkpt lat="43.66713" lon="7.102">
        <ele>52</ele>
        <time>2010-12-15T17:45:53.000Z</time>
      </trkpt>
      <trkpt lat="43.66707" lon="7.10194">
        <ele>52.799999237061</ele>
        <time>2010-12-15T17:45:57.000Z</time>
      </trkpt>
      <trkpt lat="43.66703" lon="7.10189">
        <ele>53.599998474121</ele>
        <time>2010-12-15T17:46:00.000Z</time>
      </trkpt>
      <trkpt lat="43.66697" lon="7.10181">
        <ele>54.400001525879</ele>
        <time>2010-12-15T17:46:04.000Z</time>
      </trkpt>
      <trkpt lat="43.66692" lon="7.10168">
        <ele>55.400001525879</ele>
        <time>2010-12-15T17:46:10.000Z</time>
      </trkpt>
      <trkpt lat="43.66686" lon="7.10157">
        <ele>56.400001525879</ele>
        <time>2010-12-15T17:46:15.000Z</time>
      </trkpt>
      <trkpt lat="43.66682" lon="7.10145">
        <ele>57.599998474121</ele>
        <time>2010-12-15T17:46:20.000Z</time>
      </trkpt>
      <trkpt lat="43.66675" lon="7.10134">
        <ele>58.599998474121</ele>
        <time>2010-12-15T17:46:25.000Z</time>
      </trkpt>
      <trkpt lat="43.6667" lon="7.10131">
        <ele>59</ele>
        <time>2010-12-15T17:46:27.000Z</time>
      </trkpt>
      <trkpt lat="43.6666" lon="7.10124">
        <ele>60.200000762939</ele>
        <time>2010-12-15T17:46:33.000Z</time>
      </trkpt>
      <trkpt lat="43.66654" lon="7.10119">
        <ele>61.200000762939</ele>
        <time>2010-12-15T17:46:37.000Z</time>
      </trkpt>
      <trkpt lat="43.66655" lon="7.10111">
        <ele>61.599998474121</ele>
        <time>2010-12-15T17:46:41.000Z</time>
      </trkpt>
      <trkpt lat="43.66654" lon="7.10109">
        <ele>61.799999237061</ele>
        <time>2010-12-15T17:46:42.000Z</time>
      </trkpt>
      <trkpt lat="43.66653" lon="7.10093">
        <ele>62.599998474121</ele>
        <time>2010-12-15T17:46:48.000Z</time>
      </trkpt>
      <trkpt lat="43.66657" lon="7.10082">
        <ele>62.799999237061</ele>
        <time>2010-12-15T17:46:53.000Z</time>
      </trkpt>
      <trkpt lat="43.66654" lon="7.10072">
        <ele>64.400001525879</ele>
        <time>2010-12-15T17:46:58.000Z</time>
      </trkpt>
      <trkpt lat="43.66651" lon="7.10062">
        <ele>65.800003051758</ele>
        <time>2010-12-15T17:47:03.000Z</time>
      </trkpt>
      <trkpt lat="43.66651" lon="7.10059">
        <ele>66</ele>
        <time>2010-12-15T17:47:07.000Z</time>
      </trkpt>
      <trkpt lat="43.66654" lon="7.10055">
        <ele>66.400001525879</ele>
        <time>2010-12-15T17:47:26.000Z</time>
      </trkpt>
      <trkpt lat="43.66654" lon="7.10053">
        <ele>66.599998474121</ele>
        <time>2010-12-15T17:47:27.000Z</time>
      </trkpt>
      <trkpt lat="43.66655" lon="7.10046">
        <ele>67.400001525879</ele>
        <time>2010-12-15T17:47:30.000Z</time>
      </trkpt>
      <trkpt lat="43.66648" lon="7.10038">
        <ele>68.599998474121</ele>
        <time>2010-12-15T17:47:35.000Z</time>
      </trkpt>
      <trkpt lat="43.66647" lon="7.10033">
        <ele>69.199996948242</ele>
        <time>2010-12-15T17:47:37.000Z</time>
      </trkpt>
      <trkpt lat="43.66649" lon="7.10023">
        <ele>70.199996948242</ele>
        <time>2010-12-15T17:47:41.000Z</time>
      </trkpt>
      <trkpt lat="43.66651" lon="7.10008">
        <ele>72</ele>
        <time>2010-12-15T17:47:47.000Z</time>
      </trkpt>
      <trkpt lat="43.66649" lon="7.10001">
        <ele>72.800003051758</ele>
        <time>2010-12-15T17:47:51.000Z</time>
      </trkpt>
      <trkpt lat="43.66643" lon="7.10002">
        <ele>72.599998474121</ele>
        <time>2010-12-15T17:47:54.000Z</time>
      </trkpt>
      <trkpt lat="43.66641" lon="7.09992">
        <ele>73.599998474121</ele>
        <time>2010-12-15T17:47:59.000Z</time>
      </trkpt>
      <trkpt lat="43.66644" lon="7.09985">
        <ele>74.400001525879</ele>
        <time>2010-12-15T17:48:02.000Z</time>
      </trkpt>
      <trkpt lat="43.66647" lon="7.09973">
        <ele>75.400001525879</ele>
        <time>2010-12-15T17:48:07.000Z</time>
      </trkpt>
      <trkpt lat="43.66649" lon="7.09964">
        <ele>76.400001525879</ele>
        <time>2010-12-15T17:48:11.000Z</time>
      </trkpt>
      <trkpt lat="43.66647" lon="7.09948">
        <ele>78</ele>
        <time>2010-12-15T17:48:18.000Z</time>
      </trkpt>
      <trkpt lat="43.66648" lon="7.09935">
        <ele>79.199996948242</ele>
        <time>2010-12-15T17:48:23.000Z</time>
      </trkpt>
      <trkpt lat="43.66651" lon="7.09922">
        <ele>80.599998474121</ele>
        <time>2010-12-15T17:48:29.000Z</time>
      </trkpt>
      <trkpt lat="43.66655" lon="7.09916">
        <ele>81.400001525879</ele>
        <time>2010-12-15T17:48:36.000Z</time>
      </trkpt>
      <trkpt lat="43.66656" lon="7.09918">
        <ele>81.199996948242</ele>
        <time>2010-12-15T17:48:43.000Z</time>
      </trkpt>
      <trkpt lat="43.66656" lon="7.09916">
        <ele>81.400001525879</ele>
        <time>2010-12-15T17:48:50.000Z</time>
      </trkpt>
      <trkpt lat="43.66656" lon="7.09915">
        <ele>81.400001525879</ele>
        <time>2010-12-15T17:48:51.000Z</time>
      </trkpt>
      <trkpt lat="43.66661" lon="7.09897">
        <ele>82.599998474121</ele>
        <time>2010-12-15T17:48:58.000Z</time>
      </trkpt>
      <trkpt lat="43.66664" lon="7.09883">
        <ele>83.400001525879</ele>
        <time>2010-12-15T17:49:03.000Z</time>
      </trkpt>
      <trkpt lat="43.66663" lon="7.09868">
        <ele>84</ele>
        <time>2010-12-15T17:49:08.000Z</time>
      </trkpt>
      <trkpt lat="43.66665" lon="7.09864">
        <ele>84.400001525879</ele>
        <time>2010-12-15T17:49:09.000Z</time>
      </trkpt>
      <trkpt lat="43.66676" lon="7.09845">
        <ele>85</ele>
        <time>2010-12-15T17:49:16.000Z</time>
      </trkpt>
      <trkpt lat="43.66683" lon="7.09832">
        <ele>85.599998474121</ele>
        <time>2010-12-15T17:49:21.000Z</time>
      </trkpt>
      <trkpt lat="43.66684" lon="7.0983">
        <ele>85.599998474121</ele>
        <time>2010-12-15T17:49:22.000Z</time>
      </trkpt>
      <trkpt lat="43.66691" lon="7.09808">
        <ele>85.800003051758</ele>
        <time>2010-12-15T17:49:29.000Z</time>
      </trkpt>
      <trkpt lat="43.66692" lon="7.09797">
        <ele>86.199996948242</ele>
        <time>2010-12-15T17:49:32.000Z</time>
      </trkpt>
      <trkpt lat="43.6669" lon="7.09776">
        <ele>86.599998474121</ele>
        <time>2010-12-15T17:49:39.000Z</time>
      </trkpt>
      <trkpt lat="43.66693" lon="7.09755">
        <ele>87</ele>
        <time>2010-12-15T17:49:46.000Z</time>
      </trkpt>
      <trkpt lat="43.66694" lon="7.09752">
        <ele>87.199996948242</ele>
        <time>2010-12-15T17:49:47.000Z</time>
      </trkpt>
      <trkpt lat="43.66698" lon="7.0974">
        <ele>87.599998474121</ele>
        <time>2010-12-15T17:49:52.000Z</time>
      </trkpt>
      <trkpt lat="43.66704" lon="7.09727">
        <ele>88.400001525879</ele>
        <time>2010-12-15T17:49:58.000Z</time>
      </trkpt>
      <trkpt lat="43.6671" lon="7.09715">
        <ele>89.199996948242</ele>
        <time>2010-12-15T17:50:04.000Z</time>
      </trkpt>
      <trkpt lat="43.66716" lon="7.09695">
        <ele>90.400001525879</ele>
        <time>2010-12-15T17:50:11.000Z</time>
      </trkpt>
      <trkpt lat="43.66725" lon="7.09687">
        <ele>91.199996948242</ele>
        <time>2010-12-15T17:50:16.000Z</time>
      </trkpt>
      <trkpt lat="43.66733" lon="7.0967">
        <ele>92.599998474121</ele>
        <time>2010-12-15T17:50:23.000Z</time>
      </trkpt>
      <trkpt lat="43.66739" lon="7.09652">
        <ele>94.199996948242</ele>
        <time>2010-12-15T17:50:29.000Z</time>
      </trkpt>
      <trkpt lat="43.66742" lon="7.09643">
        <ele>95</ele>
        <time>2010-12-15T17:50:32.000Z</time>
      </trkpt>
      <trkpt lat="43.66746" lon="7.09628">
        <ele>96.400001525879</ele>
        <time>2010-12-15T17:50:37.000Z</time>
      </trkpt>
      <trkpt lat="43.66747" lon="7.09625">
        <ele>96.599998474121</ele>
        <time>2010-12-15T17:50:38.000Z</time>
      </trkpt>
      <trkpt lat="43.6675" lon="7.0961">
        <ele>98</ele>
        <time>2010-12-15T17:50:44.000Z</time>
      </trkpt>
      <trkpt lat="43.66751" lon="7.09605">
        <ele>98.400001525879</ele>
        <time>2010-12-15T17:50:46.000Z</time>
      </trkpt>
      <trkpt lat="43.66753" lon="7.09592">
        <ele>99.199996948242</ele>
        <time>2010-12-15T17:50:51.000Z</time>
      </trkpt>
      <trkpt lat="43.66757" lon="7.09575">
        <ele>100</ele>
        <time>2010-12-15T17:50:57.000Z</time>
      </trkpt>
      <trkpt lat="43.66761" lon="7.09562">
        <ele>100.19999694824</ele>
        <time>2010-12-15T17:51:02.000Z</time>
      </trkpt>
      <trkpt lat="43.66765" lon="7.09547">
        <ele>100.59999847412</ele>
        <time>2010-12-15T17:51:07.000Z</time>
      </trkpt>
      <trkpt lat="43.66769" lon="7.0953">
        <ele>101</ele>
        <time>2010-12-15T17:51:13.000Z</time>
      </trkpt>
      <trkpt lat="43.66769" lon="7.09513">
        <ele>101.59999847412</ele>
        <time>2010-12-15T17:51:19.000Z</time>
      </trkpt>
      <trkpt lat="43.66764" lon="7.09504">
        <ele>101.80000305176</ele>
        <time>2010-12-15T17:51:25.000Z</time>
      </trkpt>
      <trkpt lat="43.66764" lon="7.09504">
        <ele>101.80000305176</ele>
        <time>2010-12-15T17:51:32.000Z</time>
      </trkpt>
      <trkpt lat="43.66764" lon="7.09504">
        <ele>101.80000305176</ele>
        <time>2010-12-15T17:51:38.000Z</time>
      </trkpt>
      <trkpt lat="43.66759" lon="7.09488">
        <ele>101.80000305176</ele>
        <time>2010-12-15T17:51:44.000Z</time>
      </trkpt>
      <trkpt lat="43.66754" lon="7.09474">
        <ele>101.40000152588</ele>
        <time>2010-12-15T17:51:48.000Z</time>
      </trkpt>
      <trkpt lat="43.66751" lon="7.09468">
        <ele>101.19999694824</ele>
        <time>2010-12-15T17:51:50.000Z</time>
      </trkpt>
      <trkpt lat="43.66734" lon="7.09458">
        <ele>100.40000152588</ele>
        <time>2010-12-15T17:51:57.000Z</time>
      </trkpt>
      <trkpt lat="43.66723" lon="7.09451">
        <ele>100</ele>
        <time>2010-12-15T17:52:02.000Z</time>
      </trkpt>
      <trkpt lat="43.66711" lon="7.09444">
        <ele>99.400001525879</ele>
        <time>2010-12-15T17:52:07.000Z</time>
      </trkpt>
      <trkpt lat="43.66698" lon="7.09439">
        <ele>99</ele>
        <time>2010-12-15T17:52:12.000Z</time>
      </trkpt>
      <trkpt lat="43.66686" lon="7.09435">
        <ele>98.599998474121</ele>
        <time>2010-12-15T17:52:17.000Z</time>
      </trkpt>
      <trkpt lat="43.66682" lon="7.09434">
        <ele>98.599998474121</ele>
        <time>2010-12-15T17:52:19.000Z</time>
      </trkpt>
      <trkpt lat="43.66673" lon="7.09425">
        <ele>98.199996948242</ele>
        <time>2010-12-15T17:52:24.000Z</time>
      </trkpt>
      <trkpt lat="43.66662" lon="7.09412">
        <ele>98.199996948242</ele>
        <time>2010-12-15T17:52:30.000Z</time>
      </trkpt>
      <trkpt lat="43.66648" lon="7.09397">
        <ele>98.800003051758</ele>
        <time>2010-12-15T17:52:37.000Z</time>
      </trkpt>
      <trkpt lat="43.66631" lon="7.09386">
        <ele>99</ele>
        <time>2010-12-15T17:52:45.000Z</time>
      </trkpt>
      <trkpt lat="43.66619" lon="7.09375">
        <ele>99.199996948242</ele>
        <time>2010-12-15T17:52:51.000Z</time>
      </trkpt>
      <trkpt lat="43.66612" lon="7.09361">
        <ele>99.800003051758</ele>
        <time>2010-12-15T17:52:57.000Z</time>
      </trkpt>
      <trkpt lat="43.66617" lon="7.09346">
        <ele>100.80000305176</ele>
        <time>2010-12-15T17:53:02.000Z</time>
      </trkpt>
      <trkpt lat="43.66618" lon="7.09343">
        <ele>101</ele>
        <time>2010-12-15T17:53:03.000Z</time>
      </trkpt>
      <trkpt lat="43.66624" lon="7.09331">
        <ele>102</ele>
        <time>2010-12-15T17:53:08.000Z</time>
      </trkpt>
      <trkpt lat="43.66626" lon="7.09325">
        <ele>102.40000152588</ele>
        <time>2010-12-15T17:53:10.000Z</time>
      </trkpt>
      <trkpt lat="43.66637" lon="7.09313">
        <ele>103.80000305176</ele>
        <time>2010-12-15T17:53:16.000Z</time>
      </trkpt>
      <trkpt lat="43.66644" lon="7.09309">
        <ele>104.59999847412</ele>
        <time>2010-12-15T17:53:20.000Z</time>
      </trkpt>
      <trkpt lat="43.66654" lon="7.09312">
        <ele>105.19999694824</ele>
        <time>2010-12-15T17:53:25.000Z</time>
      </trkpt>
      <trkpt lat="43.66661" lon="7.09317">
        <ele>105.19999694824</ele>
        <time>2010-12-15T17:53:29.000Z</time>
      </trkpt>
      <trkpt lat="43.66662" lon="7.09317">
        <ele>105.19999694824</ele>
        <time>2010-12-15T17:53:30.000Z</time>
      </trkpt>
      <trkpt lat="43.66667" lon="7.09331">
        <ele>104.19999694824</ele>
        <time>2010-12-15T17:53:35.000Z</time>
      </trkpt>
      <trkpt lat="43.66667" lon="7.09334">
        <ele>103.80000305176</ele>
        <time>2010-12-15T17:53:36.000Z</time>
      </trkpt>
      <trkpt lat="43.6666" lon="7.09343">
        <ele>103</ele>
        <time>2010-12-15T17:53:40.000Z</time>
      </trkpt>
      <trkpt lat="43.66646" lon="7.0935">
        <ele>101.80000305176</ele>
        <time>2010-12-15T17:53:46.000Z</time>
      </trkpt>
      <trkpt lat="43.66648" lon="7.09364">
        <ele>101</ele>
        <time>2010-12-15T17:53:51.000Z</time>
      </trkpt>
      <trkpt lat="43.66648" lon="7.09378">
        <ele>100</ele>
        <time>2010-12-15T17:53:55.000Z</time>
      </trkpt>
      <trkpt lat="43.66648" lon="7.09381">
        <ele>99.800003051758</ele>
        <time>2010-12-15T17:53:56.000Z</time>
      </trkpt>
      <trkpt lat="43.66655" lon="7.09392">
        <ele>99.400001525879</ele>
        <time>2010-12-15T17:54:01.000Z</time>
      </trkpt>
      <trkpt lat="43.66654" lon="7.09396">
        <ele>99</ele>
        <time>2010-12-15T17:54:05.000Z</time>
      </trkpt>
      <trkpt lat="43.66654" lon="7.09407">
        <ele>98.199996948242</ele>
        <time>2010-12-15T17:54:10.000Z</time>
      </trkpt>
      <trkpt lat="43.66654" lon="7.0941">
        <ele>98</ele>
        <time>2010-12-15T17:54:11.000Z</time>
      </trkpt>
      <trkpt lat="43.66647" lon="7.0943">
        <ele>97.400001525879</ele>
        <time>2010-12-15T17:54:18.000Z</time>
      </trkpt>
      <trkpt lat="43.66637" lon="7.09435">
        <ele>97</ele>
        <time>2010-12-15T17:54:23.000Z</time>
      </trkpt>
      <trkpt lat="43.66636" lon="7.09433">
        <ele>97</ele>
        <time>2010-12-15T17:54:24.000Z</time>
      </trkpt>
      <trkpt lat="43.66624" lon="7.09421">
        <ele>96.800003051758</ele>
        <time>2010-12-15T17:54:30.000Z</time>
      </trkpt>
      <trkpt lat="43.66622" lon="7.09419">
        <ele>96.800003051758</ele>
        <time>2010-12-15T17:54:32.000Z</time>
      </trkpt>
      <trkpt lat="43.66614" lon="7.09405">
        <ele>97.400001525879</ele>
        <time>2010-12-15T17:54:38.000Z</time>
      </trkpt>
      <trkpt lat="43.66611" lon="7.09394">
        <ele>97.800003051758</ele>
        <time>2010-12-15T17:54:42.000Z</time>
      </trkpt>
      <trkpt lat="43.66601" lon="7.09377">
        <ele>98.400001525879</ele>
        <time>2010-12-15T17:54:49.000Z</time>
      </trkpt>
      <trkpt lat="43.66602" lon="7.09366">
        <ele>99</ele>
        <time>2010-12-15T17:54:55.000Z</time>
      </trkpt>
      <trkpt lat="43.66604" lon="7.09366">
        <ele>99.199996948242</ele>
        <time>2010-12-15T17:55:04.000Z</time>
      </trkpt>
      <trkpt lat="43.66604" lon="7.09364">
        <ele>99.199996948242</ele>
        <time>2010-12-15T17:55:10.000Z</time>
      </trkpt>
      <trkpt lat="43.66606" lon="7.09346">
        <ele>100.19999694824</ele>
        <time>2010-12-15T17:55:17.000Z</time>
      </trkpt>
      <trkpt lat="43.66609" lon="7.09333">
        <ele>101.19999694824</ele>
        <time>2010-12-15T17:55:22.000Z</time>
      </trkpt>
      <trkpt lat="43.66614" lon="7.09321">
        <ele>102</ele>
        <time>2010-12-15T17:55:26.000Z</time>
      </trkpt>
      <trkpt lat="43.66619" lon="7.09307">
        <ele>103</ele>
        <time>2010-12-15T17:55:31.000Z</time>
      </trkpt>
      <trkpt lat="43.66626" lon="7.09293">
        <ele>104.40000152588</ele>
        <time>2010-12-15T17:55:37.000Z</time>
      </trkpt>
      <trkpt lat="43.66635" lon="7.09282">
        <ele>105.80000305176</ele>
        <time>2010-12-15T17:55:42.000Z</time>
      </trkpt>
      <trkpt lat="43.66645" lon="7.09268">
        <ele>107.80000305176</ele>
        <time>2010-12-15T17:55:48.000Z</time>
      </trkpt>
      <trkpt lat="43.6665" lon="7.09254">
        <ele>109.59999847412</ele>
        <time>2010-12-15T17:55:53.000Z</time>
      </trkpt>
      <trkpt lat="43.66655" lon="7.09242">
        <ele>110.80000305176</ele>
        <time>2010-12-15T17:55:58.000Z</time>
      </trkpt>
      <trkpt lat="43.66656" lon="7.09239">
        <ele>111.19999694824</ele>
        <time>2010-12-15T17:55:59.000Z</time>
      </trkpt>
      <trkpt lat="43.6666" lon="7.09224">
        <ele>112.59999847412</ele>
        <time>2010-12-15T17:56:04.000Z</time>
      </trkpt>
      <trkpt lat="43.66666" lon="7.09204">
        <ele>114.40000152588</ele>
        <time>2010-12-15T17:56:11.000Z</time>
      </trkpt>
      <trkpt lat="43.6667" lon="7.09193">
        <ele>115.80000305176</ele>
        <time>2010-12-15T17:56:15.000Z</time>
      </trkpt>
      <trkpt lat="43.66678" lon="7.09181">
        <ele>117.80000305176</ele>
        <time>2010-12-15T17:56:20.000Z</time>
      </trkpt>
      <trkpt lat="43.66687" lon="7.0917">
        <ele>120</ele>
        <time>2010-12-15T17:56:25.000Z</time>
      </trkpt>
      <trkpt lat="43.66698" lon="7.09161">
        <ele>122.19999694824</ele>
        <time>2010-12-15T17:56:31.000Z</time>
      </trkpt>
      <trkpt lat="43.66707" lon="7.09149">
        <ele>123.59999847412</ele>
        <time>2010-12-15T17:56:37.000Z</time>
      </trkpt>
      <trkpt lat="43.66711" lon="7.09144">
        <ele>124.40000152588</ele>
        <time>2010-12-15T17:56:42.000Z</time>
      </trkpt>
      <trkpt lat="43.6672" lon="7.09137">
        <ele>125.80000305176</ele>
        <time>2010-12-15T17:56:53.000Z</time>
      </trkpt>
      <trkpt lat="43.66721" lon="7.09132">
        <ele>126</ele>
        <time>2010-12-15T17:56:55.000Z</time>
      </trkpt>
      <trkpt lat="43.66723" lon="7.09119">
        <ele>126.59999847412</ele>
        <time>2010-12-15T17:57:00.000Z</time>
      </trkpt>
      <trkpt lat="43.66723" lon="7.09116">
        <ele>126.59999847412</ele>
        <time>2010-12-15T17:57:01.000Z</time>
      </trkpt>
      <trkpt lat="43.66722" lon="7.09097">
        <ele>126.40000152588</ele>
        <time>2010-12-15T17:57:08.000Z</time>
      </trkpt>
      <trkpt lat="43.66724" lon="7.09078">
        <ele>126.80000305176</ele>
        <time>2010-12-15T17:57:14.000Z</time>
      </trkpt>
      <trkpt lat="43.66729" lon="7.09059">
        <ele>127.40000152588</ele>
        <time>2010-12-15T17:57:20.000Z</time>
      </trkpt>
      <trkpt lat="43.66735" lon="7.09044">
        <ele>128.19999694824</ele>
        <time>2010-12-15T17:57:25.000Z</time>
      </trkpt>
      <trkpt lat="43.66742" lon="7.09032">
        <ele>129.19999694824</ele>
        <time>2010-12-15T17:57:30.000Z</time>
      </trkpt>
      <trkpt lat="43.66754" lon="7.09015">
        <ele>130.60000610352</ele>
        <time>2010-12-15T17:57:37.000Z</time>
      </trkpt>
      <trkpt lat="43.66763" lon="7.09006">
        <ele>131.39999389648</ele>
        <time>2010-12-15T17:57:42.000Z</time>
      </trkpt>
      <trkpt lat="43.66778" lon="7.08996">
        <ele>132.80000305176</ele>
        <time>2010-12-15T17:57:49.000Z</time>
      </trkpt>
      <trkpt lat="43.6679" lon="7.08994">
        <ele>134</ele>
        <time>2010-12-15T17:57:54.000Z</time>
      </trkpt>
      <trkpt lat="43.668" lon="7.08988">
        <ele>135.19999694824</ele>
        <time>2010-12-15T17:57:59.000Z</time>
      </trkpt>
      <trkpt lat="43.66814" lon="7.08981">
        <ele>136.80000305176</ele>
        <time>2010-12-15T17:58:05.000Z</time>
      </trkpt>
      <trkpt lat="43.66827" lon="7.08977">
        <ele>138.19999694824</ele>
        <time>2010-12-15T17:58:11.000Z</time>
      </trkpt>
      <trkpt lat="43.66839" lon="7.08972">
        <ele>138.80000305176</ele>
        <time>2010-12-15T17:58:17.000Z</time>
      </trkpt>
      <trkpt lat="43.66847" lon="7.08963">
        <ele>139</ele>
        <time>2010-12-15T17:58:22.000Z</time>
      </trkpt>
      <trkpt lat="43.66855" lon="7.08946">
        <ele>139.39999389648</ele>
        <time>2010-12-15T17:58:29.000Z</time>
      </trkpt>
      <trkpt lat="43.66859" lon="7.0894">
        <ele>139.60000610352</ele>
        <time>2010-12-15T17:58:34.000Z</time>
      </trkpt>
      <trkpt lat="43.6686" lon="7.08941">
        <ele>139.60000610352</ele>
        <time>2010-12-15T17:58:42.000Z</time>
      </trkpt>
      <trkpt lat="43.6686" lon="7.08942">
        <ele>139.60000610352</ele>
        <time>2010-12-15T17:58:49.000Z</time>
      </trkpt>
      <trkpt lat="43.66862" lon="7.08943">
        <ele>139.60000610352</ele>
        <time>2010-12-15T17:58:56.000Z</time>
      </trkpt>
      <trkpt lat="43.66866" lon="7.08945">
        <ele>139.60000610352</ele>
        <time>2010-12-15T17:58:59.000Z</time>
      </trkpt>
      <trkpt lat="43.66873" lon="7.08936">
        <ele>140</ele>
        <time>2010-12-15T17:59:04.000Z</time>
      </trkpt>
      <trkpt lat="43.66874" lon="7.08933">
        <ele>140.19999694824</ele>
        <time>2010-12-15T17:59:05.000Z</time>
      </trkpt>
      <trkpt lat="43.66879" lon="7.08911">
        <ele>141.60000610352</ele>
        <time>2010-12-15T17:59:12.000Z</time>
      </trkpt>
      <trkpt lat="43.66887" lon="7.08889">
        <ele>144.19999694824</ele>
        <time>2010-12-15T17:59:19.000Z</time>
      </trkpt>
      <trkpt lat="43.66895" lon="7.08869">
        <ele>146.60000610352</ele>
        <time>2010-12-15T17:59:26.000Z</time>
      </trkpt>
      <trkpt lat="43.66903" lon="7.08853">
        <ele>148.39999389648</ele>
        <time>2010-12-15T17:59:32.000Z</time>
      </trkpt>
      <trkpt lat="43.66909" lon="7.0884">
        <ele>150</ele>
        <time>2010-12-15T17:59:37.000Z</time>
      </trkpt>
      <trkpt lat="43.66911" lon="7.08828">
        <ele>151.19999694824</ele>
        <time>2010-12-15T17:59:41.000Z</time>
      </trkpt>
      <trkpt lat="43.66915" lon="7.08816">
        <ele>152.60000610352</ele>
        <time>2010-12-15T17:59:46.000Z</time>
      </trkpt>
      <trkpt lat="43.66916" lon="7.08813">
        <ele>152.80000305176</ele>
        <time>2010-12-15T17:59:47.000Z</time>
      </trkpt>
      <trkpt lat="43.66919" lon="7.08794">
        <ele>154.39999389648</ele>
        <time>2010-12-15T17:59:53.000Z</time>
      </trkpt>
      <trkpt lat="43.6692" lon="7.08792">
        <ele>154.39999389648</ele>
        <time>2010-12-15T17:59:54.000Z</time>
      </trkpt>
      <trkpt lat="43.66924" lon="7.08777">
        <ele>155.39999389648</ele>
        <time>2010-12-15T17:59:59.000Z</time>
      </trkpt>
      <trkpt lat="43.66928" lon="7.08763">
        <ele>156.39999389648</ele>
        <time>2010-12-15T18:00:04.000Z</time>
      </trkpt>
      <trkpt lat="43.6693" lon="7.08752">
        <ele>157</ele>
        <time>2010-12-15T18:00:11.000Z</time>
      </trkpt>
      <trkpt lat="43.66934" lon="7.08746">
        <ele>157</ele>
        <time>2010-12-15T18:00:21.000Z</time>
      </trkpt>
      <trkpt lat="43.66935" lon="7.08743">
        <ele>157</ele>
        <time>2010-12-15T18:00:33.000Z</time>
      </trkpt>
      <trkpt lat="43.66936" lon="7.08734">
        <ele>157.19999694824</ele>
        <time>2010-12-15T18:00:37.000Z</time>
      </trkpt>
      <trkpt lat="43.6694" lon="7.08719">
        <ele>157.39999389648</ele>
        <time>2010-12-15T18:00:42.000Z</time>
      </trkpt>
      <trkpt lat="43.66944" lon="7.08712">
        <ele>157.19999694824</ele>
        <time>2010-12-15T18:00:44.000Z</time>
      </trkpt>
      <trkpt lat="43.66961" lon="7.08697">
        <ele>155.19999694824</ele>
        <time>2010-12-15T18:00:50.000Z</time>
      </trkpt>
      <trkpt lat="43.66976" lon="7.08698">
        <ele>152.60000610352</ele>
        <time>2010-12-15T18:00:55.000Z</time>
      </trkpt>
      <trkpt lat="43.66988" lon="7.08703">
        <ele>150.60000610352</ele>
        <time>2010-12-15T18:01:00.000Z</time>
      </trkpt>
      <trkpt lat="43.67005" lon="7.0871">
        <ele>148.80000305176</ele>
        <time>2010-12-15T18:01:06.000Z</time>
      </trkpt>
      <trkpt lat="43.67017" lon="7.0872">
        <ele>148.60000610352</ele>
        <time>2010-12-15T18:01:11.000Z</time>
      </trkpt>
      <trkpt lat="43.67029" lon="7.08727">
        <ele>148.60000610352</ele>
        <time>2010-12-15T18:01:16.000Z</time>
      </trkpt>
      <trkpt lat="43.67043" lon="7.08732">
        <ele>148.60000610352</ele>
        <time>2010-12-15T18:01:21.000Z</time>
      </trkpt>
      <trkpt lat="43.67057" lon="7.0874">
        <ele>149</ele>
        <time>2010-12-15T18:01:27.000Z</time>
      </trkpt>
      <trkpt lat="43.67068" lon="7.08744">
        <ele>149.39999389648</ele>
        <time>2010-12-15T18:01:32.000Z</time>
      </trkpt>
      <trkpt lat="43.67075" lon="7.0875">
        <ele>149.80000305176</ele>
        <time>2010-12-15T18:01:37.000Z</time>
      </trkpt>
      <trkpt lat="43.67086" lon="7.08759">
        <ele>149.80000305176</ele>
        <time>2010-12-15T18:01:42.000Z</time>
      </trkpt>
      <trkpt lat="43.67098" lon="7.08767">
        <ele>150.60000610352</ele>
        <time>2010-12-15T18:01:47.000Z</time>
      </trkpt>
      <trkpt lat="43.67109" lon="7.08776">
        <ele>151.39999389648</ele>
        <time>2010-12-15T18:01:52.000Z</time>
      </trkpt>
      <trkpt lat="43.67122" lon="7.08792">
        <ele>152.19999694824</ele>
        <time>2010-12-15T18:01:58.000Z</time>
      </trkpt>
      <trkpt lat="43.67132" lon="7.08802">
        <ele>152.80000305176</ele>
        <time>2010-12-15T18:02:03.000Z</time>
      </trkpt>
      <trkpt lat="43.67139" lon="7.08813">
        <ele>153.39999389648</ele>
        <time>2010-12-15T18:02:08.000Z</time>
      </trkpt>
      <trkpt lat="43.67147" lon="7.08831">
        <ele>153.80000305176</ele>
        <time>2010-12-15T18:02:14.000Z</time>
      </trkpt>
      <trkpt lat="43.67153" lon="7.08845">
        <ele>153.60000610352</ele>
        <time>2010-12-15T18:02:19.000Z</time>
      </trkpt>
      <trkpt lat="43.67159" lon="7.08856">
        <ele>153.60000610352</ele>
        <time>2010-12-15T18:02:23.000Z</time>
      </trkpt>
      <trkpt lat="43.67166" lon="7.0887">
        <ele>153.60000610352</ele>
        <time>2010-12-15T18:02:28.000Z</time>
      </trkpt>
      <trkpt lat="43.67175" lon="7.08884">
        <ele>153.19999694824</ele>
        <time>2010-12-15T18:02:34.000Z</time>
      </trkpt>
      <trkpt lat="43.67177" lon="7.08898">
        <ele>152.39999389648</ele>
        <time>2010-12-15T18:02:38.000Z</time>
      </trkpt>
      <trkpt lat="43.6718" lon="7.08917">
        <ele>151.19999694824</ele>
        <time>2010-12-15T18:02:43.000Z</time>
      </trkpt>
      <trkpt lat="43.67184" lon="7.08929">
        <ele>150.19999694824</ele>
        <time>2010-12-15T18:02:47.000Z</time>
      </trkpt>
      <trkpt lat="43.67192" lon="7.08943">
        <ele>149</ele>
        <time>2010-12-15T18:02:52.000Z</time>
      </trkpt>
      <trkpt lat="43.67201" lon="7.08949">
        <ele>148.39999389648</ele>
        <time>2010-12-15T18:02:57.000Z</time>
      </trkpt>
      <trkpt lat="43.67204" lon="7.08954">
        <ele>148</ele>
        <time>2010-12-15T18:03:01.000Z</time>
      </trkpt>
      <trkpt lat="43.67205" lon="7.08952">
        <ele>148</ele>
        <time>2010-12-15T18:03:17.000Z</time>
      </trkpt>
      <trkpt lat="43.67206" lon="7.08955">
        <ele>147.80000305176</ele>
        <time>2010-12-15T18:03:22.000Z</time>
      </trkpt>
      <trkpt lat="43.6721" lon="7.08966">
        <ele>146.60000610352</ele>
        <time>2010-12-15T18:03:27.000Z</time>
      </trkpt>
      <trkpt lat="43.67211" lon="7.0897">
        <ele>146</ele>
        <time>2010-12-15T18:03:29.000Z</time>
      </trkpt>
      <trkpt lat="43.67216" lon="7.08984">
        <ele>144.39999389648</ele>
        <time>2010-12-15T18:03:36.000Z</time>
      </trkpt>
      <trkpt lat="43.6722" lon="7.08999">
        <ele>142.39999389648</ele>
        <time>2010-12-15T18:03:41.000Z</time>
      </trkpt>
      <trkpt lat="43.6722" lon="7.09006">
        <ele>141.60000610352</ele>
        <time>2010-12-15T18:03:43.000Z</time>
      </trkpt>
      <trkpt lat="43.6722" lon="7.09022">
        <ele>139.80000305176</ele>
        <time>2010-12-15T18:03:48.000Z</time>
      </trkpt>
      <trkpt lat="43.6722" lon="7.09034">
        <ele>138.60000610352</ele>
        <time>2010-12-15T18:03:54.000Z</time>
      </trkpt>
      <trkpt lat="43.67223" lon="7.09043">
        <ele>137.19999694824</ele>
        <time>2010-12-15T18:03:58.000Z</time>
      </trkpt>
      <trkpt lat="43.67228" lon="7.09054">
        <ele>135.60000610352</ele>
        <time>2010-12-15T18:04:03.000Z</time>
      </trkpt>
      <trkpt lat="43.67234" lon="7.09065">
        <ele>133.60000610352</ele>
        <time>2010-12-15T18:04:08.000Z</time>
      </trkpt>
      <trkpt lat="43.67236" lon="7.0907">
        <ele>132.80000305176</ele>
        <time>2010-12-15T18:04:10.000Z</time>
      </trkpt>
      <trkpt lat="43.67244" lon="7.09092">
        <ele>129.60000610352</ele>
        <time>2010-12-15T18:04:17.000Z</time>
      </trkpt>
      <trkpt lat="43.67251" lon="7.09102">
        <ele>128</ele>
        <time>2010-12-15T18:04:21.000Z</time>
      </trkpt>
      <trkpt lat="43.67259" lon="7.0911">
        <ele>126.59999847412</ele>
        <time>2010-12-15T18:04:26.000Z</time>
      </trkpt>
      <trkpt lat="43.67267" lon="7.09122">
        <ele>124.80000305176</ele>
        <time>2010-12-15T18:04:30.000Z</time>
      </trkpt>
      <trkpt lat="43.67269" lon="7.09136">
        <ele>123.59999847412</ele>
        <time>2010-12-15T18:04:34.000Z</time>
      </trkpt>
      <trkpt lat="43.6727" lon="7.09138">
        <ele>123.19999694824</ele>
        <time>2010-12-15T18:04:35.000Z</time>
      </trkpt>
      <trkpt lat="43.67281" lon="7.09136">
        <ele>122.59999847412</ele>
        <time>2010-12-15T18:04:40.000Z</time>
      </trkpt>
      <trkpt lat="43.67283" lon="7.09136">
        <ele>122.40000152588</ele>
        <time>2010-12-15T18:04:41.000Z</time>
      </trkpt>
      <trkpt lat="43.67291" lon="7.09144">
        <ele>121.40000152588</ele>
        <time>2010-12-15T18:04:45.000Z</time>
      </trkpt>
      <trkpt lat="43.67298" lon="7.09148">
        <ele>120.80000305176</ele>
        <time>2010-12-15T18:04:50.000Z</time>
      </trkpt>
      <trkpt lat="43.67311" lon="7.09144">
        <ele>120.19999694824</ele>
        <time>2010-12-15T18:04:56.000Z</time>
      </trkpt>
      <trkpt lat="43.67314" lon="7.09145">
        <ele>120</ele>
        <time>2010-12-15T18:05:00.000Z</time>
      </trkpt>
      <trkpt lat="43.67314" lon="7.09142">
        <ele>120</ele>
        <time>2010-12-15T18:05:06.000Z</time>
      </trkpt>
      <trkpt lat="43.67314" lon="7.09146">
        <ele>119.80000305176</ele>
        <time>2010-12-15T18:05:11.000Z</time>
      </trkpt>
      <trkpt lat="43.67317" lon="7.09145">
        <ele>119.80000305176</ele>
        <time>2010-12-15T18:05:16.000Z</time>
      </trkpt>
      <trkpt lat="43.67321" lon="7.0915">
        <ele>119.19999694824</ele>
        <time>2010-12-15T18:05:20.000Z</time>
      </trkpt>
      <trkpt lat="43.67324" lon="7.09155">
        <ele>118.80000305176</ele>
        <time>2010-12-15T18:05:24.000Z</time>
      </trkpt>
      <trkpt lat="43.67323" lon="7.09154">
        <ele>119</ele>
        <time>2010-12-15T18:05:26.000Z</time>
      </trkpt>
      <trkpt lat="43.67315" lon="7.09147">
        <ele>119.80000305176</ele>
        <time>2010-12-15T18:05:32.000Z</time>
      </trkpt>
      <trkpt lat="43.67312" lon="7.09148">
        <ele>119.80000305176</ele>
        <time>2010-12-15T18:05:39.000Z</time>
      </trkpt>
      <trkpt lat="43.67314" lon="7.0915">
        <ele>119.59999847412</ele>
        <time>2010-12-15T18:05:55.000Z</time>
      </trkpt>
      <trkpt lat="43.67314" lon="7.09155">
        <ele>119.40000152588</ele>
        <time>2010-12-15T18:06:02.000Z</time>
      </trkpt>
      <trkpt lat="43.67304" lon="7.09165">
        <ele>119.40000152588</ele>
        <time>2010-12-15T18:06:07.000Z</time>
      </trkpt>
      <trkpt lat="43.67297" lon="7.09172">
        <ele>119.40000152588</ele>
        <time>2010-12-15T18:06:12.000Z</time>
      </trkpt>
      <trkpt lat="43.67295" lon="7.09178">
        <ele>119.40000152588</ele>
        <time>2010-12-15T18:06:15.000Z</time>
      </trkpt>
      <trkpt lat="43.67284" lon="7.09188">
        <ele>119.40000152588</ele>
        <time>2010-12-15T18:06:20.000Z</time>
      </trkpt>
      <trkpt lat="43.67275" lon="7.09197">
        <ele>119.40000152588</ele>
        <time>2010-12-15T18:06:26.000Z</time>
      </trkpt>
      <trkpt lat="43.67265" lon="7.09207">
        <ele>119.19999694824</ele>
        <time>2010-12-15T18:06:32.000Z</time>
      </trkpt>
      <trkpt lat="43.67253" lon="7.09217">
        <ele>118.80000305176</ele>
        <time>2010-12-15T18:06:37.000Z</time>
      </trkpt>
      <trkpt lat="43.67244" lon="7.09228">
        <ele>118.59999847412</ele>
        <time>2010-12-15T18:06:42.000Z</time>
      </trkpt>
      <trkpt lat="43.67234" lon="7.09238">
        <ele>118.80000305176</ele>
        <time>2010-12-15T18:06:47.000Z</time>
      </trkpt>
      <trkpt lat="43.67223" lon="7.09248">
        <ele>119</ele>
        <time>2010-12-15T18:06:52.000Z</time>
      </trkpt>
      <trkpt lat="43.67215" lon="7.09256">
        <ele>119</ele>
        <time>2010-12-15T18:06:57.000Z</time>
      </trkpt>
      <trkpt lat="43.67211" lon="7.09258">
        <ele>119.19999694824</ele>
        <time>2010-12-15T18:06:59.000Z</time>
      </trkpt>
      <trkpt lat="43.67208" lon="7.09259">
        <ele>119.40000152588</ele>
        <time>2010-12-15T18:07:01.000Z</time>
      </trkpt>
      <trkpt lat="43.67202" lon="7.09261">
        <ele>119.59999847412</ele>
        <time>2010-12-15T18:07:08.000Z</time>
      </trkpt>
      <trkpt lat="43.67201" lon="7.09262">
        <ele>119.59999847412</ele>
        <time>2010-12-15T18:07:15.000Z</time>
      </trkpt>
      <trkpt lat="43.67201" lon="7.09262">
        <ele>119.59999847412</ele>
        <time>2010-12-15T18:07:22.000Z</time>
      </trkpt>
      <trkpt lat="43.672" lon="7.09261">
        <ele>119.80000305176</ele>
        <time>2010-12-15T18:07:31.000Z</time>
      </trkpt>
      <trkpt lat="43.67195" lon="7.09256">
        <ele>120.59999847412</ele>
        <time>2010-12-15T18:07:35.000Z</time>
      </trkpt>
      <trkpt lat="43.67182" lon="7.09261">
        <ele>121.19999694824</ele>
        <time>2010-12-15T18:07:41.000Z</time>
      </trkpt>
      <trkpt lat="43.67165" lon="7.09267">
        <ele>121.80000305176</ele>
        <time>2010-12-15T18:07:47.000Z</time>
      </trkpt>
      <trkpt lat="43.67154" lon="7.0927">
        <ele>122</ele>
        <time>2010-12-15T18:07:51.000Z</time>
      </trkpt>
      <trkpt lat="43.67143" lon="7.09271">
        <ele>122</ele>
        <time>2010-12-15T18:07:56.000Z</time>
      </trkpt>
      <trkpt lat="43.6714" lon="7.09272">
        <ele>122</ele>
        <time>2010-12-15T18:07:59.000Z</time>
      </trkpt>
      <trkpt lat="43.67139" lon="7.09271">
        <ele>122</ele>
        <time>2010-12-15T18:08:05.000Z</time>
      </trkpt>
      <trkpt lat="43.67137" lon="7.0927">
        <ele>122.19999694824</ele>
        <time>2010-12-15T18:08:10.000Z</time>
      </trkpt>
      <trkpt lat="43.67136" lon="7.09264">
        <ele>122.40000152588</ele>
        <time>2010-12-15T18:08:13.000Z</time>
      </trkpt>
      <trkpt lat="43.67131" lon="7.09255">
        <ele>122.80000305176</ele>
        <time>2010-12-15T18:08:17.000Z</time>
      </trkpt>
      <trkpt lat="43.6713" lon="7.09254">
        <ele>122.80000305176</ele>
        <time>2010-12-15T18:08:18.000Z</time>
      </trkpt>
      <trkpt lat="43.6712" lon="7.09255">
        <ele>122.80000305176</ele>
        <time>2010-12-15T18:08:24.000Z</time>
      </trkpt>
      <trkpt lat="43.67108" lon="7.09255">
        <ele>122.80000305176</ele>
        <time>2010-12-15T18:08:29.000Z</time>
      </trkpt>
      <trkpt lat="43.67097" lon="7.09256">
        <ele>122.80000305176</ele>
        <time>2010-12-15T18:08:33.000Z</time>
      </trkpt>
      <trkpt lat="43.67091" lon="7.09255">
        <ele>122.80000305176</ele>
        <time>2010-12-15T18:08:36.000Z</time>
      </trkpt>
      <trkpt lat="43.67079" lon="7.09248">
        <ele>122.59999847412</ele>
        <time>2010-12-15T18:08:42.000Z</time>
      </trkpt>
      <trkpt lat="43.67072" lon="7.09251">
        <ele>122</ele>
        <time>2010-12-15T18:08:46.000Z</time>
      </trkpt>
      <trkpt lat="43.67061" lon="7.09246">
        <ele>121.19999694824</ele>
        <time>2010-12-15T18:08:52.000Z</time>
      </trkpt>
      <trkpt lat="43.67043" lon="7.09243">
        <ele>119.59999847412</ele>
        <time>2010-12-15T18:08:59.000Z</time>
      </trkpt>
      <trkpt lat="43.67034" lon="7.09245">
        <ele>118.80000305176</ele>
        <time>2010-12-15T18:09:03.000Z</time>
      </trkpt>
      <trkpt lat="43.67033" lon="7.09243">
        <ele>118.80000305176</ele>
        <time>2010-12-15T18:09:08.000Z</time>
      </trkpt>
      <trkpt lat="43.67033" lon="7.09238">
        <ele>118.80000305176</ele>
        <time>2010-12-15T18:09:26.000Z</time>
      </trkpt>
      <trkpt lat="43.67024" lon="7.09248">
        <ele>118</ele>
        <time>2010-12-15T18:09:31.000Z</time>
      </trkpt>
      <trkpt lat="43.67013" lon="7.0926">
        <ele>117.40000152588</ele>
        <time>2010-12-15T18:09:36.000Z</time>
      </trkpt>
      <trkpt lat="43.67003" lon="7.09274">
        <ele>117</ele>
        <time>2010-12-15T18:09:41.000Z</time>
      </trkpt>
      <trkpt lat="43.66999" lon="7.09281">
        <ele>117</ele>
        <time>2010-12-15T18:09:45.000Z</time>
      </trkpt>
      <trkpt lat="43.66998" lon="7.09284">
        <ele>117</ele>
        <time>2010-12-15T18:09:47.000Z</time>
      </trkpt>
      <trkpt lat="43.6699" lon="7.0929">
        <ele>117</ele>
        <time>2010-12-15T18:09:52.000Z</time>
      </trkpt>
      <trkpt lat="43.66988" lon="7.0929">
        <ele>117</ele>
        <time>2010-12-15T18:09:53.000Z</time>
      </trkpt>
      <trkpt lat="43.66981" lon="7.09299">
        <ele>116.80000305176</ele>
        <time>2010-12-15T18:09:58.000Z</time>
      </trkpt>
      <trkpt lat="43.66974" lon="7.09301">
        <ele>116.59999847412</ele>
        <time>2010-12-15T18:10:02.000Z</time>
      </trkpt>
      <trkpt lat="43.6697" lon="7.093">
        <ele>116.40000152588</ele>
        <time>2010-12-15T18:10:04.000Z</time>
      </trkpt>
      <trkpt lat="43.66961" lon="7.093">
        <ele>116</ele>
        <time>2010-12-15T18:10:08.000Z</time>
      </trkpt>
      <trkpt lat="43.6696" lon="7.09299">
        <ele>115.80000305176</ele>
        <time>2010-12-15T18:10:13.000Z</time>
      </trkpt>
      <trkpt lat="43.66963" lon="7.09303">
        <ele>116</ele>
        <time>2010-12-15T18:10:23.000Z</time>
      </trkpt>
      <trkpt lat="43.66962" lon="7.09301">
        <ele>116</ele>
        <time>2010-12-15T18:10:28.000Z</time>
      </trkpt>
      <trkpt lat="43.66959" lon="7.09303">
        <ele>115.80000305176</ele>
        <time>2010-12-15T18:10:30.000Z</time>
      </trkpt>
      <trkpt lat="43.66953" lon="7.09309">
        <ele>115.40000152588</ele>
        <time>2010-12-15T18:10:34.000Z</time>
      </trkpt>
      <trkpt lat="43.6695" lon="7.09312">
        <ele>115.19999694824</ele>
        <time>2010-12-15T18:10:36.000Z</time>
      </trkpt>
      <trkpt lat="43.6694" lon="7.09321">
        <ele>114.19999694824</ele>
        <time>2010-12-15T18:10:41.000Z</time>
      </trkpt>
      <trkpt lat="43.66927" lon="7.09324">
        <ele>113.19999694824</ele>
        <time>2010-12-15T18:10:46.000Z</time>
      </trkpt>
      <trkpt lat="43.66913" lon="7.0933">
        <ele>112</ele>
        <time>2010-12-15T18:10:51.000Z</time>
      </trkpt>
      <trkpt lat="43.6691" lon="7.09349">
        <ele>111.59999847412</ele>
        <time>2010-12-15T18:10:57.000Z</time>
      </trkpt>
      <trkpt lat="43.66905" lon="7.09366">
        <ele>111.19999694824</ele>
        <time>2010-12-15T18:11:03.000Z</time>
      </trkpt>
      <trkpt lat="43.66905" lon="7.09371">
        <ele>111.19999694824</ele>
        <time>2010-12-15T18:11:05.000Z</time>
      </trkpt>
      <trkpt lat="43.66906" lon="7.09389">
        <ele>110.80000305176</ele>
        <time>2010-12-15T18:11:10.000Z</time>
      </trkpt>
      <trkpt lat="43.66903" lon="7.09401">
        <ele>110.59999847412</ele>
        <time>2010-12-15T18:11:14.000Z</time>
      </trkpt>
      <trkpt lat="43.66896" lon="7.09415">
        <ele>110</ele>
        <time>2010-12-15T18:11:20.000Z</time>
      </trkpt>
      <trkpt lat="43.66889" lon="7.09426">
        <ele>109.40000152588</ele>
        <time>2010-12-15T18:11:25.000Z</time>
      </trkpt>
      <trkpt lat="43.66887" lon="7.09428">
        <ele>109.19999694824</ele>
        <time>2010-12-15T18:11:26.000Z</time>
      </trkpt>
      <trkpt lat="43.66886" lon="7.09446">
        <ele>108.59999847412</ele>
        <time>2010-12-15T18:11:32.000Z</time>
      </trkpt>
      <trkpt lat="43.66887" lon="7.09449">
        <ele>108.59999847412</ele>
        <time>2010-12-15T18:11:33.000Z</time>
      </trkpt>
      <trkpt lat="43.66888" lon="7.09466">
        <ele>108</ele>
        <time>2010-12-15T18:11:38.000Z</time>
      </trkpt>
      <trkpt lat="43.66885" lon="7.09472">
        <ele>107.59999847412</ele>
        <time>2010-12-15T18:11:40.000Z</time>
      </trkpt>
      <trkpt lat="43.66876" lon="7.0948">
        <ele>106.80000305176</ele>
        <time>2010-12-15T18:11:45.000Z</time>
      </trkpt>
      <trkpt lat="43.66877" lon="7.09476">
        <ele>107</ele>
        <time>2010-12-15T18:11:54.000Z</time>
      </trkpt>
      <trkpt lat="43.6688" lon="7.09476">
        <ele>107.19999694824</ele>
        <time>2010-12-15T18:12:00.000Z</time>
      </trkpt>
      <trkpt lat="43.66889" lon="7.09474">
        <ele>108</ele>
        <time>2010-12-15T18:12:07.000Z</time>
      </trkpt>
      <trkpt lat="43.66887" lon="7.09473">
        <ele>107.80000305176</ele>
        <time>2010-12-15T18:12:14.000Z</time>
      </trkpt>
      <trkpt lat="43.66878" lon="7.09477">
        <ele>107</ele>
        <time>2010-12-15T18:12:30.000Z</time>
      </trkpt>
      <trkpt lat="43.66864" lon="7.09495">
        <ele>105</ele>
        <time>2010-12-15T18:12:37.000Z</time>
      </trkpt>
      <trkpt lat="43.66858" lon="7.09504">
        <ele>104</ele>
        <time>2010-12-15T18:12:41.000Z</time>
      </trkpt>
      <trkpt lat="43.66846" lon="7.09523">
        <ele>101.80000305176</ele>
        <time>2010-12-15T18:12:48.000Z</time>
      </trkpt>
      <trkpt lat="43.66844" lon="7.09525">
        <ele>101.59999847412</ele>
        <time>2010-12-15T18:12:49.000Z</time>
      </trkpt>
      <trkpt lat="43.66837" lon="7.09537">
        <ele>100.40000152588</ele>
        <time>2010-12-15T18:12:53.000Z</time>
      </trkpt>
      <trkpt lat="43.66821" lon="7.09556">
        <ele>99.400001525879</ele>
        <time>2010-12-15T18:13:01.000Z</time>
      </trkpt>
      <trkpt lat="43.6681" lon="7.09566">
        <ele>99.199996948242</ele>
        <time>2010-12-15T18:13:06.000Z</time>
      </trkpt>
      <trkpt lat="43.66808" lon="7.09568">
        <ele>99.199996948242</ele>
        <time>2010-12-15T18:13:07.000Z</time>
      </trkpt>
      <trkpt lat="43.66795" lon="7.09577">
        <ele>99</ele>
        <time>2010-12-15T18:13:12.000Z</time>
      </trkpt>
      <trkpt lat="43.66783" lon="7.09587">
        <ele>98.800003051758</ele>
        <time>2010-12-15T18:13:18.000Z</time>
      </trkpt>
      <trkpt lat="43.66775" lon="7.09593">
        <ele>98.599998474121</ele>
        <time>2010-12-15T18:13:22.000Z</time>
      </trkpt>
      <trkpt lat="43.66763" lon="7.09598">
        <ele>98.599998474121</ele>
        <time>2010-12-15T18:13:27.000Z</time>
      </trkpt>
      <trkpt lat="43.66752" lon="7.09604">
        <ele>98.400001525879</ele>
        <time>2010-12-15T18:13:32.000Z</time>
      </trkpt>
      <trkpt lat="43.66752" lon="7.09604">
        <ele>98.400001525879</ele>
        <time>2010-12-15T18:13:36.000Z</time>
      </trkpt>
      <trkpt lat="43.66752" lon="7.09604">
        <ele>98.400001525879</ele>
        <time>2010-12-15T18:13:44.000Z</time>
      </trkpt>
      <trkpt lat="43.66753" lon="7.09603">
        <ele>98.400001525879</ele>
        <time>2010-12-15T18:13:47.000Z</time>
      </trkpt>
      <trkpt lat="43.66752" lon="7.09599">
        <ele>98.800003051758</ele>
        <time>2010-12-15T18:13:51.000Z</time>
      </trkpt>
      <trkpt lat="43.66757" lon="7.09605">
        <ele>98.199996948242</ele>
        <time>2010-12-15T18:13:59.000Z</time>
      </trkpt>
      <trkpt lat="43.66751" lon="7.09619">
        <ele>97.199996948242</ele>
        <time>2010-12-15T18:14:05.000Z</time>
      </trkpt>
      <trkpt lat="43.66747" lon="7.09629">
        <ele>96.400001525879</ele>
        <time>2010-12-15T18:14:08.000Z</time>
      </trkpt>
      <trkpt lat="43.66737" lon="7.09653">
        <ele>94</ele>
        <time>2010-12-15T18:14:15.000Z</time>
      </trkpt>
      <trkpt lat="43.66734" lon="7.0967">
        <ele>92.599998474121</ele>
        <time>2010-12-15T18:14:20.000Z</time>
      </trkpt>
      <trkpt lat="43.66729" lon="7.09687">
        <ele>91.400001525879</ele>
        <time>2010-12-15T18:14:25.000Z</time>
      </trkpt>
      <trkpt lat="43.66718" lon="7.09701">
        <ele>90.199996948242</ele>
        <time>2010-12-15T18:14:31.000Z</time>
      </trkpt>
      <trkpt lat="43.66707" lon="7.09724">
        <ele>88.599998474121</ele>
        <time>2010-12-15T18:14:38.000Z</time>
      </trkpt>
      <trkpt lat="43.667" lon="7.09738">
        <ele>87.800003051758</ele>
        <time>2010-12-15T18:14:43.000Z</time>
      </trkpt>
      <trkpt lat="43.66696" lon="7.0975">
        <ele>87.199996948242</ele>
        <time>2010-12-15T18:14:47.000Z</time>
      </trkpt>
      <trkpt lat="43.66692" lon="7.09769">
        <ele>86.800003051758</ele>
        <time>2010-12-15T18:14:52.000Z</time>
      </trkpt>
      <trkpt lat="43.6669" lon="7.09783">
        <ele>86.400001525879</ele>
        <time>2010-12-15T18:14:56.000Z</time>
      </trkpt>
      <trkpt lat="43.66689" lon="7.09803">
        <ele>86</ele>
        <time>2010-12-15T18:15:01.000Z</time>
      </trkpt>
      <trkpt lat="43.66686" lon="7.09817">
        <ele>85.800003051758</ele>
        <time>2010-12-15T18:15:05.000Z</time>
      </trkpt>
      <trkpt lat="43.66678" lon="7.09834">
        <ele>85.599998474121</ele>
        <time>2010-12-15T18:15:10.000Z</time>
      </trkpt>
      <trkpt lat="43.66669" lon="7.0985">
        <ele>85</ele>
        <time>2010-12-15T18:15:15.000Z</time>
      </trkpt>
      <trkpt lat="43.66659" lon="7.09865">
        <ele>84</ele>
        <time>2010-12-15T18:15:20.000Z</time>
      </trkpt>
      <trkpt lat="43.6666" lon="7.09887">
        <ele>83</ele>
        <time>2010-12-15T18:15:26.000Z</time>
      </trkpt>
      <trkpt lat="43.66654" lon="7.09912">
        <ele>81.599998474121</ele>
        <time>2010-12-15T18:15:33.000Z</time>
      </trkpt>
      <trkpt lat="43.6665" lon="7.09927">
        <ele>80.199996948242</ele>
        <time>2010-12-15T18:15:37.000Z</time>
      </trkpt>
      <trkpt lat="43.66646" lon="7.09936">
        <ele>79</ele>
        <time>2010-12-15T18:15:40.000Z</time>
      </trkpt>
      <trkpt lat="43.66644" lon="7.09942">
        <ele>78.400001525879</ele>
        <time>2010-12-15T18:15:42.000Z</time>
      </trkpt>
      <trkpt lat="43.66645" lon="7.09958">
        <ele>76.800003051758</ele>
        <time>2010-12-15T18:15:47.000Z</time>
      </trkpt>
      <trkpt lat="43.66646" lon="7.09966">
        <ele>76.199996948242</ele>
        <time>2010-12-15T18:15:50.000Z</time>
      </trkpt>
      <trkpt lat="43.66645" lon="7.09971">
        <ele>75.599998474121</ele>
        <time>2010-12-15T18:15:56.000Z</time>
      </trkpt>
      <trkpt lat="43.66645" lon="7.09971">
        <ele>75.599998474121</ele>
        <time>2010-12-15T18:16:11.000Z</time>
      </trkpt>
      <trkpt lat="43.66642" lon="7.09978">
        <ele>75</ele>
        <time>2010-12-15T18:16:16.000Z</time>
      </trkpt>
      <trkpt lat="43.66638" lon="7.09996">
        <ele>73.199996948242</ele>
        <time>2010-12-15T18:16:21.000Z</time>
      </trkpt>
      <trkpt lat="43.66637" lon="7.1001">
        <ele>71.800003051758</ele>
        <time>2010-12-15T18:16:25.000Z</time>
      </trkpt>
      <trkpt lat="43.66645" lon="7.10032">
        <ele>69.400001525879</ele>
        <time>2010-12-15T18:16:32.000Z</time>
      </trkpt>
      <trkpt lat="43.66647" lon="7.10041">
        <ele>68.400001525879</ele>
        <time>2010-12-15T18:16:36.000Z</time>
      </trkpt>
      <trkpt lat="43.6665" lon="7.10057">
        <ele>66.400001525879</ele>
        <time>2010-12-15T18:16:41.000Z</time>
      </trkpt>
      <trkpt lat="43.66649" lon="7.1006">
        <ele>66</ele>
        <time>2010-12-15T18:16:42.000Z</time>
      </trkpt>
      <trkpt lat="43.66645" lon="7.10074">
        <ele>64.800003051758</ele>
        <time>2010-12-15T18:16:47.000Z</time>
      </trkpt>
      <trkpt lat="43.66646" lon="7.10088">
        <ele>63.400001525879</ele>
        <time>2010-12-15T18:16:51.000Z</time>
      </trkpt>
      <trkpt lat="43.66646" lon="7.10092">
        <ele>63.200000762939</ele>
        <time>2010-12-15T18:16:52.000Z</time>
      </trkpt>
      <trkpt lat="43.66645" lon="7.10105">
        <ele>62.799999237061</ele>
        <time>2010-12-15T18:16:57.000Z</time>
      </trkpt>
      <trkpt lat="43.66643" lon="7.10103">
        <ele>63.200000762939</ele>
        <time>2010-12-15T18:17:11.000Z</time>
      </trkpt>
      <trkpt lat="43.66644" lon="7.10103">
        <ele>63</ele>
        <time>2010-12-15T18:17:15.000Z</time>
      </trkpt>
      <trkpt lat="43.66644" lon="7.10112">
        <ele>62.799999237061</ele>
        <time>2010-12-15T18:17:19.000Z</time>
      </trkpt>
      <trkpt lat="43.66644" lon="7.10115">
        <ele>62.599998474121</ele>
        <time>2010-12-15T18:17:20.000Z</time>
      </trkpt>
      <trkpt lat="43.66648" lon="7.10131">
        <ele>61.400001525879</ele>
        <time>2010-12-15T18:17:25.000Z</time>
      </trkpt>
      <trkpt lat="43.6666" lon="7.10142">
        <ele>59.400001525879</ele>
        <time>2010-12-15T18:17:31.000Z</time>
      </trkpt>
      <trkpt lat="43.66671" lon="7.10146">
        <ele>58</ele>
        <time>2010-12-15T18:17:36.000Z</time>
      </trkpt>
      <trkpt lat="43.66677" lon="7.10145">
        <ele>57.799999237061</ele>
        <time>2010-12-15T18:17:38.000Z</time>
      </trkpt>
      <trkpt lat="43.66693" lon="7.10156">
        <ele>56.200000762939</ele>
        <time>2010-12-15T18:17:45.000Z</time>
      </trkpt>
      <trkpt lat="43.66695" lon="7.10158">
        <ele>56</ele>
        <time>2010-12-15T18:17:46.000Z</time>
      </trkpt>
      <trkpt lat="43.66704" lon="7.10173">
        <ele>54.400001525879</ele>
        <time>2010-12-15T18:17:51.000Z</time>
      </trkpt>
      <trkpt lat="43.66711" lon="7.10185">
        <ele>53</ele>
        <time>2010-12-15T18:17:55.000Z</time>
      </trkpt>
      <trkpt lat="43.66724" lon="7.102">
        <ele>50.799999237061</ele>
        <time>2010-12-15T18:18:00.000Z</time>
      </trkpt>
      <trkpt lat="43.66727" lon="7.10202">
        <ele>50.400001525879</ele>
        <time>2010-12-15T18:18:01.000Z</time>
      </trkpt>
      <trkpt lat="43.66731" lon="7.10213">
        <ele>49</ele>
        <time>2010-12-15T18:18:06.000Z</time>
      </trkpt>
      <trkpt lat="43.66733" lon="7.10216">
        <ele>48.599998474121</ele>
        <time>2010-12-15T18:18:07.000Z</time>
      </trkpt>
      <trkpt lat="43.66743" lon="7.10229">
        <ele>46.200000762939</ele>
        <time>2010-12-15T18:18:12.000Z</time>
      </trkpt>
      <trkpt lat="43.66748" lon="7.10248">
        <ele>43.400001525879</ele>
        <time>2010-12-15T18:18:17.000Z</time>
      </trkpt>
      <trkpt lat="43.66753" lon="7.10264">
        <ele>43.200000762939</ele>
        <time>2010-12-15T18:18:21.000Z</time>
      </trkpt>
      <trkpt lat="43.6676" lon="7.1027">
        <ele>43.200000762939</ele>
        <time>2010-12-15T18:18:24.000Z</time>
      </trkpt>
      <trkpt lat="43.66776" lon="7.10286">
        <ele>42.400001525879</ele>
        <time>2010-12-15T18:18:30.000Z</time>
      </trkpt>
      <trkpt lat="43.66784" lon="7.103">
        <ele>41.400001525879</ele>
        <time>2010-12-15T18:18:35.000Z</time>
      </trkpt>
      <trkpt lat="43.66797" lon="7.10314">
        <ele>39.400001525879</ele>
        <time>2010-12-15T18:18:40.000Z</time>
      </trkpt>
      <trkpt lat="43.66809" lon="7.10328">
        <ele>36.799999237061</ele>
        <time>2010-12-15T18:18:45.000Z</time>
      </trkpt>
      <trkpt lat="43.66816" lon="7.10342">
        <ele>35.200000762939</ele>
        <time>2010-12-15T18:18:49.000Z</time>
      </trkpt>
      <trkpt lat="43.66815" lon="7.10363">
        <ele>35</ele>
        <time>2010-12-15T18:18:55.000Z</time>
      </trkpt>
      <trkpt lat="43.66822" lon="7.10382">
        <ele>33.200000762939</ele>
        <time>2010-12-15T18:19:01.000Z</time>
      </trkpt>
      <trkpt lat="43.66813" lon="7.10378">
        <ele>35.200000762939</ele>
        <time>2010-12-15T18:19:11.000Z</time>
      </trkpt>
      <trkpt lat="43.66812" lon="7.10374">
        <ele>35.599998474121</ele>
        <time>2010-12-15T18:19:19.000Z</time>
      </trkpt>
      <trkpt lat="43.6681" lon="7.10371">
        <ele>36</ele>
        <time>2010-12-15T18:19:44.000Z</time>
      </trkpt>
      <trkpt lat="43.66818" lon="7.1037">
        <ele>34.400001525879</ele>
        <time>2010-12-15T18:20:01.000Z</time>
      </trkpt>
      <trkpt lat="43.6682" lon="7.10372">
        <ele>33.799999237061</ele>
        <time>2010-12-15T18:20:10.000Z</time>
      </trkpt>
      <trkpt lat="43.66819" lon="7.10371">
        <ele>34.200000762939</ele>
        <time>2010-12-15T18:20:15.000Z</time>
      </trkpt>
      <trkpt lat="43.66819" lon="7.10385">
        <ele>33.599998474121</ele>
        <time>2010-12-15T18:20:20.000Z</time>
      </trkpt>
      <trkpt lat="43.66822" lon="7.10393">
        <ele>33</ele>
        <time>2010-12-15T18:20:22.000Z</time>
      </trkpt>
      <trkpt lat="43.66825" lon="7.10405">
        <ele>31.60000038147</ele>
        <time>2010-12-15T18:20:26.000Z</time>
      </trkpt>
      <trkpt lat="43.66817" lon="7.10418">
        <ele>33.599998474121</ele>
        <time>2010-12-15T18:20:31.000Z</time>
      </trkpt>
      <trkpt lat="43.66838" lon="7.10407">
        <ele>29.39999961853</ele>
        <time>2010-12-15T18:20:39.000Z</time>
      </trkpt>
      <trkpt lat="43.66846" lon="7.10404">
        <ele>29.39999961853</ele>
        <time>2010-12-15T18:20:42.000Z</time>
      </trkpt>
      <trkpt lat="43.66864" lon="7.10398">
        <ele>29.39999961853</ele>
        <time>2010-12-15T18:20:48.000Z</time>
      </trkpt>
      <trkpt lat="43.66879" lon="7.10396">
        <ele>29.39999961853</ele>
        <time>2010-12-15T18:20:54.000Z</time>
      </trkpt>
      <trkpt lat="43.66899" lon="7.10399">
        <ele>29</ele>
        <time>2010-12-15T18:21:00.000Z</time>
      </trkpt>
      <trkpt lat="43.66911" lon="7.10409">
        <ele>27.799999237061</ele>
        <time>2010-12-15T18:21:05.000Z</time>
      </trkpt>
      <trkpt lat="43.6692" lon="7.10417">
        <ele>26.799999237061</ele>
        <time>2010-12-15T18:21:09.000Z</time>
      </trkpt>
      <trkpt lat="43.6694" lon="7.10426">
        <ele>26.39999961853</ele>
        <time>2010-12-15T18:21:16.000Z</time>
      </trkpt>
      <trkpt lat="43.66948" lon="7.10438">
        <ele>25.60000038147</ele>
        <time>2010-12-15T18:21:20.000Z</time>
      </trkpt>
      <trkpt lat="43.66947" lon="7.10457">
        <ele>24.39999961853</ele>
        <time>2010-12-15T18:21:25.000Z</time>
      </trkpt>
      <trkpt lat="43.66942" lon="7.10476">
        <ele>23.39999961853</ele>
        <time>2010-12-15T18:21:30.000Z</time>
      </trkpt>
      <trkpt lat="43.66937" lon="7.10496">
        <ele>22.200000762939</ele>
        <time>2010-12-15T18:21:35.000Z</time>
      </trkpt>
      <trkpt lat="43.6693" lon="7.10514">
        <ele>21.799999237061</ele>
        <time>2010-12-15T18:21:40.000Z</time>
      </trkpt>
      <trkpt lat="43.66922" lon="7.1053">
        <ele>21.799999237061</ele>
        <time>2010-12-15T18:21:45.000Z</time>
      </trkpt>
      <trkpt lat="43.66916" lon="7.10551">
        <ele>22</ele>
        <time>2010-12-15T18:21:51.000Z</time>
      </trkpt>
      <trkpt lat="43.66906" lon="7.10575">
        <ele>22.60000038147</ele>
        <time>2010-12-15T18:21:58.000Z</time>
      </trkpt>
      <trkpt lat="43.66898" lon="7.10596">
        <ele>22.39999961853</ele>
        <time>2010-12-15T18:22:04.000Z</time>
      </trkpt>
      <trkpt lat="43.66898" lon="7.106">
        <ele>22.200000762939</ele>
        <time>2010-12-15T18:22:05.000Z</time>
      </trkpt>
      <trkpt lat="43.66896" lon="7.10615">
        <ele>21.799999237061</ele>
        <time>2010-12-15T18:22:09.000Z</time>
      </trkpt>
      <trkpt lat="43.66892" lon="7.10638">
        <ele>20.799999237061</ele>
        <time>2010-12-15T18:22:15.000Z</time>
      </trkpt>
      <trkpt lat="43.66887" lon="7.10656">
        <ele>20.200000762939</ele>
        <time>2010-12-15T18:22:20.000Z</time>
      </trkpt>
      <trkpt lat="43.66883" lon="7.10672">
        <ele>19.60000038147</ele>
        <time>2010-12-15T18:22:24.000Z</time>
      </trkpt>
      <trkpt lat="43.66876" lon="7.10693">
        <ele>19.39999961853</ele>
        <time>2010-12-15T18:22:30.000Z</time>
      </trkpt>
      <trkpt lat="43.6687" lon="7.10711">
        <ele>19.39999961853</ele>
        <time>2010-12-15T18:22:35.000Z</time>
      </trkpt>
      <trkpt lat="43.66865" lon="7.1073">
        <ele>19.200000762939</ele>
        <time>2010-12-15T18:22:40.000Z</time>
      </trkpt>
      <trkpt lat="43.66859" lon="7.10751">
        <ele>19.39999961853</ele>
        <time>2010-12-15T18:22:46.000Z</time>
      </trkpt>
      <trkpt lat="43.66856" lon="7.10769">
        <ele>19.60000038147</ele>
        <time>2010-12-15T18:22:51.000Z</time>
      </trkpt>
      <trkpt lat="43.66854" lon="7.10789">
        <ele>19.60000038147</ele>
        <time>2010-12-15T18:22:56.000Z</time>
      </trkpt>
      <trkpt lat="43.66849" lon="7.10816">
        <ele>20</ele>
        <time>2010-12-15T18:23:03.000Z</time>
      </trkpt>
      <trkpt lat="43.66846" lon="7.10836">
        <ele>20.200000762939</ele>
        <time>2010-12-15T18:23:08.000Z</time>
      </trkpt>
      <trkpt lat="43.66843" lon="7.10856">
        <ele>20.60000038147</ele>
        <time>2010-12-15T18:23:13.000Z</time>
      </trkpt>
      <trkpt lat="43.66837" lon="7.10874">
        <ele>21.200000762939</ele>
        <time>2010-12-15T18:23:18.000Z</time>
      </trkpt>
      <trkpt lat="43.66828" lon="7.10891">
        <ele>23.200000762939</ele>
        <time>2010-12-15T18:23:23.000Z</time>
      </trkpt>
      <trkpt lat="43.6682" lon="7.10913">
        <ele>25.39999961853</ele>
        <time>2010-12-15T18:23:29.000Z</time>
      </trkpt>
      <trkpt lat="43.66818" lon="7.10932">
        <ele>25.60000038147</ele>
        <time>2010-12-15T18:23:34.000Z</time>
      </trkpt>
      <trkpt lat="43.66815" lon="7.1095">
        <ele>25.60000038147</ele>
        <time>2010-12-15T18:23:39.000Z</time>
      </trkpt>
      <trkpt lat="43.66809" lon="7.10969">
        <ele>26</ele>
        <time>2010-12-15T18:23:44.000Z</time>
      </trkpt>
      <trkpt lat="43.668" lon="7.10983">
        <ele>26.60000038147</ele>
        <time>2010-12-15T18:23:49.000Z</time>
      </trkpt>
      <trkpt lat="43.66792" lon="7.10993">
        <ele>27</ele>
        <time>2010-12-15T18:23:53.000Z</time>
      </trkpt>
      <trkpt lat="43.66782" lon="7.11014">
        <ele>26.39999961853</ele>
        <time>2010-12-15T18:23:59.000Z</time>
      </trkpt>
      <trkpt lat="43.66775" lon="7.11025">
        <ele>26</ele>
        <time>2010-12-15T18:24:03.000Z</time>
      </trkpt>
      <trkpt lat="43.66767" lon="7.11042">
        <ele>25</ele>
        <time>2010-12-15T18:24:08.000Z</time>
      </trkpt>
      <trkpt lat="43.66754" lon="7.1106">
        <ele>23.60000038147</ele>
        <time>2010-12-15T18:24:14.000Z</time>
      </trkpt>
      <trkpt lat="43.66741" lon="7.11076">
        <ele>22.60000038147</ele>
        <time>2010-12-15T18:24:20.000Z</time>
      </trkpt>
      <trkpt lat="43.66734" lon="7.11086">
        <ele>22.200000762939</ele>
        <time>2010-12-15T18:24:24.000Z</time>
      </trkpt>
      <trkpt lat="43.66723" lon="7.11093">
        <ele>23</ele>
        <time>2010-12-15T18:24:28.000Z</time>
      </trkpt>
      <trkpt lat="43.66713" lon="7.11105">
        <ele>23.200000762939</ele>
        <time>2010-12-15T18:24:33.000Z</time>
      </trkpt>
      <trkpt lat="43.66702" lon="7.11121">
        <ele>23.200000762939</ele>
        <time>2010-12-15T18:24:38.000Z</time>
      </trkpt>
      <trkpt lat="43.66688" lon="7.11133">
        <ele>23</ele>
        <time>2010-12-15T18:24:43.000Z</time>
      </trkpt>
      <trkpt lat="43.66678" lon="7.11141">
        <ele>22.799999237061</ele>
        <time>2010-12-15T18:24:47.000Z</time>
      </trkpt>
      <trkpt lat="43.66661" lon="7.1115">
        <ele>22.799999237061</ele>
        <time>2010-12-15T18:24:53.000Z</time>
      </trkpt>
      <trkpt lat="43.66653" lon="7.11158">
        <ele>22.60000038147</ele>
        <time>2010-12-15T18:24:57.000Z</time>
      </trkpt>
      <trkpt lat="43.6664" lon="7.11162">
        <ele>23.200000762939</ele>
        <time>2010-12-15T18:25:01.000Z</time>
      </trkpt>
      <trkpt lat="43.66624" lon="7.11175">
        <ele>23.799999237061</ele>
        <time>2010-12-15T18:25:08.000Z</time>
      </trkpt>
      <trkpt lat="43.66607" lon="7.11185">
        <ele>24.799999237061</ele>
        <time>2010-12-15T18:25:14.000Z</time>
      </trkpt>
      <trkpt lat="43.6659" lon="7.11189">
        <ele>25.60000038147</ele>
        <time>2010-12-15T18:25:20.000Z</time>
      </trkpt>
      <trkpt lat="43.66577" lon="7.11189">
        <ele>26.60000038147</ele>
        <time>2010-12-15T18:25:24.000Z</time>
      </trkpt>
      <trkpt lat="43.66559" lon="7.11194">
        <ele>28</ele>
        <time>2010-12-15T18:25:30.000Z</time>
      </trkpt>
      <trkpt lat="43.66544" lon="7.11201">
        <ele>29</ele>
        <time>2010-12-15T18:25:35.000Z</time>
      </trkpt>
      <trkpt lat="43.6654" lon="7.11203">
        <ele>29.200000762939</ele>
        <time>2010-12-15T18:25:37.000Z</time>
      </trkpt>
      <trkpt lat="43.66526" lon="7.11211">
        <ele>30</ele>
        <time>2010-12-15T18:25:42.000Z</time>
      </trkpt>
      <trkpt lat="43.66513" lon="7.11219">
        <ele>30.799999237061</ele>
        <time>2010-12-15T18:25:46.000Z</time>
      </trkpt>
      <trkpt lat="43.66499" lon="7.11226">
        <ele>31.39999961853</ele>
        <time>2010-12-15T18:25:51.000Z</time>
      </trkpt>
      <trkpt lat="43.66489" lon="7.11236">
        <ele>31</ele>
        <time>2010-12-15T18:25:56.000Z</time>
      </trkpt>
      <trkpt lat="43.66476" lon="7.1124">
        <ele>31</ele>
        <time>2010-12-15T18:26:00.000Z</time>
      </trkpt>
      <trkpt lat="43.66469" lon="7.11249">
        <ele>30.799999237061</ele>
        <time>2010-12-15T18:26:04.000Z</time>
      </trkpt>
      <trkpt lat="43.66457" lon="7.11265">
        <ele>29.60000038147</ele>
        <time>2010-12-15T18:26:10.000Z</time>
      </trkpt>
      <trkpt lat="43.66443" lon="7.11281">
        <ele>28.60000038147</ele>
        <time>2010-12-15T18:26:16.000Z</time>
      </trkpt>
      <trkpt lat="43.66438" lon="7.11286">
        <ele>28.39999961853</ele>
        <time>2010-12-15T18:26:18.000Z</time>
      </trkpt>
      <trkpt lat="43.66422" lon="7.11286">
        <ele>28.799999237061</ele>
        <time>2010-12-15T18:26:23.000Z</time>
      </trkpt>
      <trkpt lat="43.66411" lon="7.11293">
        <ele>28.60000038147</ele>
        <time>2010-12-15T18:26:28.000Z</time>
      </trkpt>
      <trkpt lat="43.66397" lon="7.11306">
        <ele>27.799999237061</ele>
        <time>2010-12-15T18:26:34.000Z</time>
      </trkpt>
      <trkpt lat="43.66384" lon="7.11319">
        <ele>27.200000762939</ele>
        <time>2010-12-15T18:26:39.000Z</time>
      </trkpt>
      <trkpt lat="43.66371" lon="7.11329">
        <ele>27</ele>
        <time>2010-12-15T18:26:43.000Z</time>
      </trkpt>
      <trkpt lat="43.66353" lon="7.11337">
        <ele>26.799999237061</ele>
        <time>2010-12-15T18:26:48.000Z</time>
      </trkpt>
      <trkpt lat="43.6634" lon="7.11341">
        <ele>26.799999237061</ele>
        <time>2010-12-15T18:26:53.000Z</time>
      </trkpt>
      <trkpt lat="43.66327" lon="7.11349">
        <ele>26.200000762939</ele>
        <time>2010-12-15T18:26:59.000Z</time>
      </trkpt>
      <trkpt lat="43.66314" lon="7.11356">
        <ele>26.200000762939</ele>
        <time>2010-12-15T18:27:04.000Z</time>
      </trkpt>
      <trkpt lat="43.66299" lon="7.11362">
        <ele>26.200000762939</ele>
        <time>2010-12-15T18:27:09.000Z</time>
      </trkpt>
      <trkpt lat="43.66289" lon="7.11362">
        <ele>26.799999237061</ele>
        <time>2010-12-15T18:27:13.000Z</time>
      </trkpt>
      <trkpt lat="43.66273" lon="7.11362">
        <ele>27.60000038147</ele>
        <time>2010-12-15T18:27:18.000Z</time>
      </trkpt>
      <trkpt lat="43.66256" lon="7.11364">
        <ele>28.60000038147</ele>
        <time>2010-12-15T18:27:23.000Z</time>
      </trkpt>
      <trkpt lat="43.66248" lon="7.11368">
        <ele>28.39999961853</ele>
        <time>2010-12-15T18:27:27.000Z</time>
      </trkpt>
      <trkpt lat="43.66232" lon="7.11373">
        <ele>29.200000762939</ele>
        <time>2010-12-15T18:27:32.000Z</time>
      </trkpt>
      <trkpt lat="43.66216" lon="7.11382">
        <ele>29.200000762939</ele>
        <time>2010-12-15T18:27:38.000Z</time>
      </trkpt>
      <trkpt lat="43.66199" lon="7.11395">
        <ele>28.39999961853</ele>
        <time>2010-12-15T18:27:44.000Z</time>
      </trkpt>
      <trkpt lat="43.66184" lon="7.11405">
        <ele>27.39999961853</ele>
        <time>2010-12-15T18:27:49.000Z</time>
      </trkpt>
      <trkpt lat="43.66168" lon="7.11416">
        <ele>26</ele>
        <time>2010-12-15T18:27:55.000Z</time>
      </trkpt>
      <trkpt lat="43.66155" lon="7.11425">
        <ele>26.799999237061</ele>
        <time>2010-12-15T18:28:00.000Z</time>
      </trkpt>
      <trkpt lat="43.66142" lon="7.11436">
        <ele>27.39999961853</ele>
        <time>2010-12-15T18:28:05.000Z</time>
      </trkpt>
      <trkpt lat="43.66126" lon="7.11451">
        <ele>27.799999237061</ele>
        <time>2010-12-15T18:28:11.000Z</time>
      </trkpt>
      <trkpt lat="43.66115" lon="7.11464">
        <ele>27.60000038147</ele>
        <time>2010-12-15T18:28:16.000Z</time>
      </trkpt>
      <trkpt lat="43.66106" lon="7.11473">
        <ele>27.39999961853</ele>
        <time>2010-12-15T18:28:20.000Z</time>
      </trkpt>
      <trkpt lat="43.66094" lon="7.1149">
        <ele>26.200000762939</ele>
        <time>2010-12-15T18:28:26.000Z</time>
      </trkpt>
      <trkpt lat="43.66082" lon="7.11503">
        <ele>25.799999237061</ele>
        <time>2010-12-15T18:28:31.000Z</time>
      </trkpt>
      <trkpt lat="43.66073" lon="7.11516">
        <ele>27.39999961853</ele>
        <time>2010-12-15T18:28:35.000Z</time>
      </trkpt>
      <trkpt lat="43.66066" lon="7.11534">
        <ele>27.799999237061</ele>
        <time>2010-12-15T18:28:40.000Z</time>
      </trkpt>
      <trkpt lat="43.66059" lon="7.11557">
        <ele>27.60000038147</ele>
        <time>2010-12-15T18:28:46.000Z</time>
      </trkpt>
      <trkpt lat="43.66052" lon="7.11577">
        <ele>27.200000762939</ele>
        <time>2010-12-15T18:28:51.000Z</time>
      </trkpt>
      <trkpt lat="43.66046" lon="7.11595">
        <ele>27.200000762939</ele>
        <time>2010-12-15T18:28:56.000Z</time>
      </trkpt>
      <trkpt lat="43.66041" lon="7.11611">
        <ele>26.799999237061</ele>
        <time>2010-12-15T18:29:00.000Z</time>
      </trkpt>
      <trkpt lat="43.66037" lon="7.11632">
        <ele>25</ele>
        <time>2010-12-15T18:29:05.000Z</time>
      </trkpt>
      <trkpt lat="43.66035" lon="7.11639">
        <ele>24.60000038147</ele>
        <time>2010-12-15T18:29:07.000Z</time>
      </trkpt>
      <trkpt lat="43.66027" lon="7.11658">
        <ele>23.39999961853</ele>
        <time>2010-12-15T18:29:12.000Z</time>
      </trkpt>
      <trkpt lat="43.66022" lon="7.11676">
        <ele>22</ele>
        <time>2010-12-15T18:29:17.000Z</time>
      </trkpt>
      <trkpt lat="43.66014" lon="7.11689">
        <ele>21.799999237061</ele>
        <time>2010-12-15T18:29:21.000Z</time>
      </trkpt>
      <trkpt lat="43.66006" lon="7.11707">
        <ele>21.200000762939</ele>
        <time>2010-12-15T18:29:27.000Z</time>
      </trkpt>
      <trkpt lat="43.65998" lon="7.11722">
        <ele>20.799999237061</ele>
        <time>2010-12-15T18:29:32.000Z</time>
      </trkpt>
      <trkpt lat="43.65995" lon="7.11726">
        <ele>20.60000038147</ele>
        <time>2010-12-15T18:29:33.000Z</time>
      </trkpt>
      <trkpt lat="43.6599" lon="7.11751">
        <ele>18.200000762939</ele>
        <time>2010-12-15T18:29:39.000Z</time>
      </trkpt>
      <trkpt lat="43.65981" lon="7.11771">
        <ele>16.799999237061</ele>
        <time>2010-12-15T18:29:44.000Z</time>
      </trkpt>
      <trkpt lat="43.65968" lon="7.11795">
        <ele>15.199999809265</ele>
        <time>2010-12-15T18:29:50.000Z</time>
      </trkpt>
      <trkpt lat="43.6596" lon="7.11809">
        <ele>14.199999809265</ele>
        <time>2010-12-15T18:29:54.000Z</time>
      </trkpt>
      <trkpt lat="43.65949" lon="7.11823">
        <ele>13.199999809265</ele>
        <time>2010-12-15T18:29:59.000Z</time>
      </trkpt>
      <trkpt lat="43.65943" lon="7.11844">
        <ele>12.39999961853</ele>
        <time>2010-12-15T18:30:04.000Z</time>
      </trkpt>
      <trkpt lat="43.65935" lon="7.11857">
        <ele>12.60000038147</ele>
        <time>2010-12-15T18:30:08.000Z</time>
      </trkpt>
      <trkpt lat="43.65927" lon="7.1188">
        <ele>12.800000190735</ele>
        <time>2010-12-15T18:30:14.000Z</time>
      </trkpt>
      <trkpt lat="43.6592" lon="7.11896">
        <ele>12.800000190735</ele>
        <time>2010-12-15T18:30:18.000Z</time>
      </trkpt>
      <trkpt lat="43.65905" lon="7.11913">
        <ele>13</ele>
        <time>2010-12-15T18:30:24.000Z</time>
      </trkpt>
      <trkpt lat="43.6589" lon="7.11923">
        <ele>13</ele>
        <time>2010-12-15T18:30:29.000Z</time>
      </trkpt>
      <trkpt lat="43.6588" lon="7.11933">
        <ele>13</ele>
        <time>2010-12-15T18:30:33.000Z</time>
      </trkpt>
      <trkpt lat="43.65876" lon="7.11948">
        <ele>13.199999809265</ele>
        <time>2010-12-15T18:30:37.000Z</time>
      </trkpt>
      <trkpt lat="43.65866" lon="7.11962">
        <ele>13.39999961853</ele>
        <time>2010-12-15T18:30:41.000Z</time>
      </trkpt>
      <trkpt lat="43.65854" lon="7.11978">
        <ele>13.60000038147</ele>
        <time>2010-12-15T18:30:46.000Z</time>
      </trkpt>
      <trkpt lat="43.65842" lon="7.11992">
        <ele>13.800000190735</ele>
        <time>2010-12-15T18:30:51.000Z</time>
      </trkpt>
      <trkpt lat="43.65827" lon="7.12005">
        <ele>14.199999809265</ele>
        <time>2010-12-15T18:30:56.000Z</time>
      </trkpt>
      <trkpt lat="43.65818" lon="7.12023">
        <ele>14.60000038147</ele>
        <time>2010-12-15T18:31:01.000Z</time>
      </trkpt>
      <trkpt lat="43.658" lon="7.12032">
        <ele>15.39999961853</ele>
        <time>2010-12-15T18:31:07.000Z</time>
      </trkpt>
      <trkpt lat="43.65782" lon="7.12036">
        <ele>16.200000762939</ele>
        <time>2010-12-15T18:31:12.000Z</time>
      </trkpt>
      <trkpt lat="43.65772" lon="7.12037">
        <ele>16.799999237061</ele>
        <time>2010-12-15T18:31:15.000Z</time>
      </trkpt>
    </trkseg>
  </trk>
</gpx>